UAE1KN OMDB-GOBD
Flight info
| Callsign | UAE1KN |
|---|---|
| Flight time | 10h 15m |
| Altitude | 30000 |
| Route | SENPA DCT ALPOB L768 VATIM L550 ULAKO/N0500F320 L550 NOVPA DCT MENLI L677 CVO L617 NABSI DCT METRU DCT ARLOS DCT VANIX DCT BIRSA/N0487F340 UG361 ELO UJ28 TGU UJ65 CITER UG859 GHA/N0490F330 UJ67 TAGIG/N0489F340 UA29 BRENA UA854 SEROR/N0497F360 UA854 ARDAR UR975 SAKLI SAKLI1A |
| Aircraft | B77W/H-SDE1E2E3FGHIJ2J3J4J5M1RWXY/LB1D1 |
Departure
| Time | 2026-04-22 01:42 |
|---|---|
| Airport | Dubai International Airport (OMDB) |
Arrival
| Time | 2026-04-22 11:57 |
|---|---|
| Airport | Blaise Diagne International Airport (GOBD) |
| Time | Latitude | Longitude | Altitude | Speed | Heading |
|---|---|---|---|---|---|
| 2026-04-22 01:27 | 25.24290 | 55.37532 | 27 ft | 0 kts | 207° |
| 2026-04-22 01:30 | 25.24292 | 55.37534 | 24 ft | 3 kts | 201° |
| 2026-04-22 01:31 | 25.24286 | 55.37539 | 27 ft | 4 kts | 165° |
| 2026-04-22 01:31 | 25.24306 | 55.37545 | 25 ft | 4 kts | 213° |
| 2026-04-22 01:31 | 25.24329 | 55.37561 | 26 ft | 4 kts | 208° |
| 2026-04-22 01:31 | 25.24350 | 55.37566 | 25 ft | 4 kts | 144° |
| 2026-04-22 01:32 | 25.24366 | 55.37544 | 25 ft | 4 kts | 120° |
| 2026-04-22 01:32 | 25.24369 | 55.37537 | 25 ft | 0 kts | 121° |
| 2026-04-22 01:37 | 25.24362 | 55.37551 | 27 ft | 3 kts | 121° |
| 2026-04-22 01:37 | 25.24351 | 55.37569 | 27 ft | 3 kts | 121° |
| 2026-04-22 01:38 | 25.24340 | 55.37591 | 27 ft | 4 kts | 121° |
| 2026-04-22 01:38 | 25.24320 | 55.37628 | 27 ft | 6 kts | 115° |
| 2026-04-22 01:38 | 25.24319 | 55.37676 | 27 ft | 6 kts | 70° |
| 2026-04-22 01:38 | 25.24346 | 55.37711 | 27 ft | 6 kts | 36° |
| 2026-04-22 01:39 | 25.24382 | 55.37739 | 27 ft | 6 kts | 34° |
| 2026-04-22 01:39 | 25.24419 | 55.37767 | 27 ft | 6 kts | 34° |
| 2026-04-22 01:39 | 25.24459 | 55.37797 | 27 ft | 8 kts | 34° |
| 2026-04-22 01:39 | 25.24520 | 55.37844 | 27 ft | 13 kts | 34° |
| 2026-04-22 01:40 | 25.24595 | 55.37900 | 27 ft | 13 kts | 34° |
| 2026-04-22 01:40 | 25.24670 | 55.37956 | 27 ft | 13 kts | 34° |
| 2026-04-22 01:40 | 25.24747 | 55.38010 | 27 ft | 13 kts | 30° |
| 2026-04-22 01:40 | 25.24825 | 55.38002 | 27 ft | 7 kts | 304° |
| 2026-04-22 01:41 | 25.24833 | 55.37988 | 27 ft | 12 kts | 298° |
| 2026-04-22 01:41 | 25.25002 | 55.37670 | 27 ft | 83 kts | 302° |
| 2026-04-22 01:41 | 25.25422 | 55.36918 | 27 ft | 145 kts | 302° |
| 2026-04-22 01:41 | 25.26056 | 55.35804 | 31 ft | 194 kts | 305° |
| 2026-04-22 01:42 | 25.26789 | 55.34525 | 417 ft | 198 kts | 303° |
| 2026-04-22 01:42 | 25.27513 | 55.33205 | 790 ft | 205 kts | 303° |
| 2026-04-22 01:42 | 25.28271 | 55.31831 | 1202 ft | 215 kts | 303° |
| 2026-04-22 01:42 | 25.29053 | 55.30429 | 1638 ft | 219 kts | 303° |
| 2026-04-22 01:43 | 25.29709 | 55.28880 | 1798 ft | 231 kts | 279° |
| 2026-04-22 01:43 | 25.29818 | 55.27107 | 2097 ft | 234 kts | 271° |
| 2026-04-22 01:43 | 25.29891 | 55.25264 | 2345 ft | 246 kts | 272° |
| 2026-04-22 01:43 | 25.30016 | 55.23336 | 2622 ft | 258 kts | 274° |
| 2026-04-22 01:44 | 25.30119 | 55.21979 | 2800 ft | 267 kts | 274° |
| 2026-04-22 01:44 | 25.30283 | 55.19887 | 3124 ft | 278 kts | 272° |
| 2026-04-22 01:44 | 25.30353 | 55.17725 | 3601 ft | 283 kts | 268° |
| 2026-04-22 01:44 | 25.30244 | 55.15562 | 4231 ft | 282 kts | 264° |
| 2026-04-22 01:45 | 25.30072 | 55.13403 | 4853 ft | 282 kts | 263° |
| 2026-04-22 01:45 | 25.29894 | 55.11247 | 5504 ft | 280 kts | 263° |
| 2026-04-22 01:45 | 25.29723 | 55.09137 | 6176 ft | 278 kts | 263° |
| 2026-04-22 01:45 | 25.29554 | 55.07022 | 6803 ft | 277 kts | 263° |
| 2026-04-22 01:46 | 25.29387 | 55.04901 | 7376 ft | 277 kts | 263° |
| 2026-04-22 01:46 | 25.29221 | 55.02778 | 7977 ft | 277 kts | 263° |
| 2026-04-22 01:46 | 25.29057 | 55.00657 | 8572 ft | 277 kts | 263° |
| 2026-04-22 01:46 | 25.28892 | 54.98540 | 9156 ft | 277 kts | 263° |
| 2026-04-22 01:47 | 25.28728 | 54.96419 | 9759 ft | 277 kts | 263° |
| 2026-04-22 01:47 | 25.28570 | 54.94291 | 10254 ft | 280 kts | 265° |
| 2026-04-22 01:47 | 25.28492 | 54.92078 | 10439 ft | 298 kts | 266° |
| 2026-04-22 01:47 | 25.28438 | 54.89715 | 10602 ft | 317 kts | 266° |
| 2026-04-22 01:48 | 25.28375 | 54.87207 | 10741 ft | 336 kts | 266° |
| 2026-04-22 01:48 | 25.28301 | 54.84553 | 10931 ft | 353 kts | 266° |
| 2026-04-22 01:48 | 25.28224 | 54.81806 | 11358 ft | 362 kts | 266° |
| 2026-04-22 01:48 | 25.28143 | 54.78999 | 11960 ft | 367 kts | 266° |
| 2026-04-22 01:49 | 25.28059 | 54.76169 | 12736 ft | 369 kts | 267° |
| 2026-04-22 01:49 | 25.28194 | 54.73346 | 13377 ft | 372 kts | 279° |
| 2026-04-22 01:49 | 25.28899 | 54.70561 | 13924 ft | 380 kts | 285° |
| 2026-04-22 01:49 | 25.29680 | 54.67765 | 14561 ft | 382 kts | 285° |
| 2026-04-22 01:50 | 25.29990 | 54.66619 | 14835 ft | 383 kts | 284° |
| 2026-04-22 01:50 | 25.30328 | 54.65346 | 15142 ft | 384 kts | 284° |
| 2026-04-22 01:50 | 25.31065 | 54.62499 | 15796 ft | 386 kts | 284° |
| 2026-04-22 01:51 | 25.31793 | 54.59625 | 16454 ft | 389 kts | 284° |
| 2026-04-22 01:51 | 25.32520 | 54.56727 | 17078 ft | 393 kts | 284° |
| 2026-04-22 01:51 | 25.33250 | 54.53806 | 17686 ft | 397 kts | 284° |
| 2026-04-22 01:51 | 25.33989 | 54.50853 | 18260 ft | 400 kts | 284° |
| 2026-04-22 01:52 | 25.34733 | 54.47876 | 18794 ft | 404 kts | 284° |
| 2026-04-22 01:52 | 25.35484 | 54.44871 | 19324 ft | 407 kts | 284° |
| 2026-04-22 01:52 | 25.36241 | 54.41841 | 19847 ft | 410 kts | 284° |
| 2026-04-22 01:52 | 25.37001 | 54.38791 | 20360 ft | 414 kts | 284° |
| 2026-04-22 01:53 | 25.37769 | 54.35709 | 20864 ft | 417 kts | 283° |
| 2026-04-22 01:53 | 25.38543 | 54.32603 | 21378 ft | 420 kts | 283° |
| 2026-04-22 01:53 | 25.39320 | 54.29480 | 21874 ft | 424 kts | 283° |
| 2026-04-22 01:53 | 25.40104 | 54.26323 | 22342 ft | 427 kts | 283° |
| 2026-04-22 01:54 | 25.40895 | 54.23137 | 22804 ft | 431 kts | 283° |
| 2026-04-22 01:54 | 25.41691 | 54.19924 | 23222 ft | 435 kts | 283° |
| 2026-04-22 01:54 | 25.42495 | 54.16681 | 23612 ft | 439 kts | 283° |
| 2026-04-22 01:54 | 25.43304 | 54.13412 | 24033 ft | 441 kts | 283° |
| 2026-04-22 01:55 | 25.44115 | 54.10134 | 24466 ft | 442 kts | 283° |
| 2026-04-22 01:55 | 25.44927 | 54.06848 | 24893 ft | 444 kts | 283° |
| 2026-04-22 01:55 | 25.45732 | 54.03584 | 25310 ft | 446 kts | 283° |
| 2026-04-22 01:55 | 25.46553 | 54.00255 | 25706 ft | 449 kts | 283° |
| 2026-04-22 01:56 | 25.47376 | 53.96912 | 26071 ft | 452 kts | 283° |
| 2026-04-22 01:56 | 25.48205 | 53.93537 | 26415 ft | 455 kts | 283° |
| 2026-04-22 01:56 | 25.49039 | 53.90143 | 26788 ft | 458 kts | 283° |
| 2026-04-22 01:56 | 25.49876 | 53.86735 | 27164 ft | 460 kts | 283° |
| 2026-04-22 01:57 | 25.50716 | 53.83309 | 27536 ft | 462 kts | 283° |
| 2026-04-22 01:57 | 25.51559 | 53.79865 | 27904 ft | 465 kts | 283° |
| 2026-04-22 01:57 | 25.52406 | 53.76404 | 28220 ft | 467 kts | 283° |
| 2026-04-22 01:57 | 25.53257 | 53.72923 | 28578 ft | 468 kts | 284° |
| 2026-04-22 01:58 | 25.54102 | 53.69460 | 29086 ft | 466 kts | 283° |
| 2026-04-22 01:58 | 25.54951 | 53.65982 | 29408 ft | 468 kts | 283° |
| 2026-04-22 01:58 | 25.55802 | 53.62488 | 29597 ft | 472 kts | 283° |
| 2026-04-22 01:58 | 25.56659 | 53.58963 | 29839 ft | 474 kts | 283° |
| 2026-04-22 01:59 | 25.57513 | 53.55448 | 30195 ft | 472 kts | 283° |
| 2026-04-22 01:59 | 25.58362 | 53.51952 | 30691 ft | 467 kts | 283° |
| 2026-04-22 01:59 | 25.59189 | 53.48544 | 31183 ft | 462 kts | 283° |
| 2026-04-22 01:59 | 25.60020 | 53.45118 | 31623 ft | 458 kts | 283° |
| 2026-04-22 02:00 | 25.60844 | 53.41711 | 31829 ft | 459 kts | 283° |
| 2026-04-22 02:00 | 25.61671 | 53.38279 | 31808 ft | 461 kts | 283° |
| 2026-04-22 02:00 | 25.63322 | 53.31438 | 31804 ft | 458 kts | 283° |
| 2026-04-22 02:01 | 25.64961 | 53.24631 | 31799 ft | 457 kts | 283° |
| 2026-04-22 02:01 | 25.66590 | 53.17845 | 31826 ft | 455 kts | 283° |
| 2026-04-22 02:02 | 25.68215 | 53.11064 | 31809 ft | 455 kts | 283° |
| 2026-04-22 02:02 | 25.69854 | 53.04286 | 31802 ft | 455 kts | 285° |
| 2026-04-22 02:03 | 25.72178 | 52.97788 | 31807 ft | 458 kts | 295° |
| 2026-04-22 02:03 | 25.75182 | 52.91553 | 31807 ft | 458 kts | 295° |
| 2026-04-22 02:04 | 25.79643 | 52.82180 | 31802 ft | 457 kts | 295° |
| 2026-04-22 02:05 | 25.82591 | 52.75928 | 31794 ft | 456 kts | 295° |
| 2026-04-22 02:05 | 25.85524 | 52.69698 | 31802 ft | 455 kts | 295° |
| 2026-04-22 02:06 | 25.88444 | 52.63490 | 31800 ft | 453 kts | 295° |
| 2026-04-22 02:06 | 25.91322 | 52.57269 | 31804 ft | 452 kts | 294° |
| 2026-04-22 02:07 | 25.94082 | 52.51003 | 31810 ft | 451 kts | 294° |
| 2026-04-22 02:07 | 25.96820 | 52.44794 | 31810 ft | 450 kts | 294° |
| 2026-04-22 02:08 | 25.99606 | 52.38511 | 31805 ft | 450 kts | 294° |
| 2026-04-22 02:08 | 26.02380 | 52.32283 | 31805 ft | 449 kts | 294° |
| 2026-04-22 02:09 | 26.05153 | 52.26053 | 31812 ft | 449 kts | 294° |
| 2026-04-22 02:09 | 26.07896 | 52.19876 | 31808 ft | 448 kts | 294° |
| 2026-04-22 02:10 | 26.10654 | 52.13659 | 31825 ft | 448 kts | 293° |
| 2026-04-22 02:10 | 26.13407 | 52.07433 | 31819 ft | 448 kts | 293° |
| 2026-04-22 02:11 | 26.16160 | 52.01206 | 31821 ft | 448 kts | 294° |
| 2026-04-22 02:11 | 26.18937 | 51.94998 | 31820 ft | 448 kts | 294° |
| 2026-04-22 02:12 | 26.21697 | 51.88842 | 31830 ft | 446 kts | 294° |
| 2026-04-22 02:12 | 26.24435 | 51.82635 | 31841 ft | 446 kts | 293° |
| 2026-04-22 02:13 | 26.27202 | 51.76405 | 31832 ft | 445 kts | 294° |
| 2026-04-22 02:13 | 26.29962 | 51.70231 | 31831 ft | 444 kts | 294° |
| 2026-04-22 02:14 | 26.32705 | 51.64072 | 31832 ft | 444 kts | 294° |
| 2026-04-22 02:14 | 26.35425 | 51.57952 | 31835 ft | 443 kts | 294° |
| 2026-04-22 02:15 | 26.38087 | 51.51763 | 31850 ft | 441 kts | 289° |
| 2026-04-22 02:15 | 26.40124 | 51.45335 | 31839 ft | 439 kts | 287° |
| 2026-04-22 02:16 | 26.42159 | 51.38908 | 31839 ft | 439 kts | 287° |
| 2026-04-22 02:16 | 26.44231 | 51.32499 | 31838 ft | 439 kts | 288° |
| 2026-04-22 02:17 | 26.46330 | 51.26097 | 31838 ft | 439 kts | 288° |
| 2026-04-22 02:17 | 26.48380 | 51.19686 | 31839 ft | 438 kts | 287° |
| 2026-04-22 02:18 | 26.50411 | 51.13270 | 31855 ft | 439 kts | 287° |
| 2026-04-22 02:18 | 26.52433 | 51.06887 | 31842 ft | 439 kts | 287° |
| 2026-04-22 02:19 | 26.54469 | 51.00459 | 31849 ft | 439 kts | 287° |
| 2026-04-22 02:19 | 26.56503 | 50.94027 | 31844 ft | 439 kts | 287° |
| 2026-04-22 02:20 | 26.58519 | 50.87583 | 31835 ft | 439 kts | 287° |
| 2026-04-22 02:20 | 26.60494 | 50.81120 | 31841 ft | 439 kts | 287° |
| 2026-04-22 02:21 | 26.62469 | 50.74660 | 31861 ft | 439 kts | 286° |
| 2026-04-22 02:21 | 26.64446 | 50.68196 | 31858 ft | 439 kts | 286° |
| 2026-04-22 02:22 | 26.66379 | 50.61721 | 31849 ft | 439 kts | 286° |
| 2026-04-22 02:22 | 26.68296 | 50.55252 | 31857 ft | 438 kts | 286° |
| 2026-04-22 02:23 | 26.70216 | 50.48786 | 31858 ft | 438 kts | 286° |
| 2026-04-22 02:23 | 26.71977 | 50.42271 | 31856 ft | 437 kts | 283° |
| 2026-04-22 02:24 | 26.73626 | 50.35723 | 31874 ft | 437 kts | 283° |
| 2026-04-22 02:24 | 26.75310 | 50.29189 | 31864 ft | 437 kts | 284° |
| 2026-04-22 02:25 | 26.77098 | 50.22698 | 31868 ft | 437 kts | 286° |
| 2026-04-22 02:25 | 26.79051 | 50.16310 | 31870 ft | 436 kts | 286° |
| 2026-04-22 02:26 | 26.80989 | 50.09882 | 31871 ft | 435 kts | 286° |
| 2026-04-22 02:26 | 26.82899 | 50.03449 | 31863 ft | 435 kts | 286° |
| 2026-04-22 02:27 | 26.84802 | 49.97021 | 31869 ft | 435 kts | 285° |
| 2026-04-22 02:27 | 26.86703 | 49.90598 | 31867 ft | 434 kts | 285° |
| 2026-04-22 02:28 | 26.88600 | 49.84177 | 31855 ft | 434 kts | 285° |
| 2026-04-22 02:28 | 26.90172 | 49.78847 | 31855 ft | 433 kts | 285° |
| 2026-04-22 02:29 | 26.92059 | 49.72434 | 31860 ft | 433 kts | 285° |
| 2026-04-22 02:29 | 26.93941 | 49.66028 | 31862 ft | 433 kts | 285° |
| 2026-04-22 02:30 | 26.95821 | 49.59617 | 31857 ft | 433 kts | 285° |
| 2026-04-22 02:30 | 26.97697 | 49.53204 | 31852 ft | 433 kts | 285° |
| 2026-04-22 02:31 | 26.99570 | 49.46796 | 31852 ft | 432 kts | 285° |
| 2026-04-22 02:31 | 27.01640 | 49.40508 | 31865 ft | 434 kts | 291° |
| 2026-04-22 02:32 | 27.04532 | 49.34520 | 31876 ft | 437 kts | 295° |
| 2026-04-22 02:32 | 27.07536 | 49.28599 | 31863 ft | 436 kts | 295° |
| 2026-04-22 02:33 | 27.10514 | 49.22672 | 31874 ft | 435 kts | 295° |
| 2026-04-22 02:33 | 27.13486 | 49.16741 | 31878 ft | 435 kts | 295° |
| 2026-04-22 02:34 | 27.16449 | 49.10817 | 31876 ft | 435 kts | 295° |
| 2026-04-22 02:34 | 27.19388 | 49.04936 | 31910 ft | 435 kts | 295° |
| 2026-04-22 02:35 | 27.22352 | 48.98998 | 31890 ft | 435 kts | 295° |
| 2026-04-22 02:35 | 27.25320 | 48.93065 | 31887 ft | 435 kts | 295° |
| 2026-04-22 02:36 | 27.28287 | 48.87131 | 31912 ft | 435 kts | 295° |
| 2026-04-22 02:36 | 27.31246 | 48.81201 | 31901 ft | 435 kts | 295° |
| 2026-04-22 02:37 | 27.34187 | 48.75298 | 31912 ft | 435 kts | 294° |
| 2026-04-22 02:37 | 27.37148 | 48.69344 | 31911 ft | 436 kts | 294° |
| 2026-04-22 02:38 | 27.40108 | 48.63387 | 31918 ft | 436 kts | 294° |
| 2026-04-22 02:38 | 27.43069 | 48.57419 | 31919 ft | 436 kts | 294° |
| 2026-04-22 02:39 | 27.46025 | 48.51452 | 31951 ft | 436 kts | 294° |
| 2026-04-22 02:39 | 27.48977 | 48.45483 | 31934 ft | 436 kts | 294° |
| 2026-04-22 02:40 | 27.51929 | 48.39508 | 31917 ft | 436 kts | 294° |
| 2026-04-22 02:40 | 27.54872 | 48.33542 | 31930 ft | 435 kts | 294° |
| 2026-04-22 02:41 | 27.57790 | 48.27617 | 31929 ft | 435 kts | 294° |
| 2026-04-22 02:41 | 27.60721 | 48.21646 | 31929 ft | 435 kts | 294° |
| 2026-04-22 02:42 | 27.63650 | 48.15666 | 31931 ft | 435 kts | 294° |
| 2026-04-22 02:42 | 27.66572 | 48.09692 | 31936 ft | 435 kts | 294° |
| 2026-04-22 02:43 | 27.69492 | 48.03716 | 31938 ft | 435 kts | 294° |
| 2026-04-22 02:43 | 27.72412 | 47.97736 | 31942 ft | 435 kts | 294° |
| 2026-04-22 02:44 | 27.75327 | 47.91761 | 31936 ft | 435 kts | 294° |
| 2026-04-22 02:44 | 27.78240 | 47.85778 | 31935 ft | 434 kts | 294° |
| 2026-04-22 02:45 | 27.81149 | 47.79793 | 31933 ft | 434 kts | 294° |
| 2026-04-22 02:45 | 27.83999 | 47.73787 | 31957 ft | 432 kts | 290° |
| 2026-04-22 02:46 | 27.86129 | 47.67494 | 31949 ft | 428 kts | 285° |
| 2026-04-22 02:46 | 27.88075 | 47.61122 | 31941 ft | 428 kts | 285° |
| 2026-04-22 02:47 | 27.90025 | 47.54806 | 31940 ft | 429 kts | 285° |
| 2026-04-22 02:47 | 27.91992 | 47.48439 | 31941 ft | 429 kts | 285° |
| 2026-04-22 02:48 | 27.93955 | 47.42068 | 31966 ft | 429 kts | 285° |
| 2026-04-22 02:48 | 27.95918 | 47.35686 | 31939 ft | 429 kts | 285° |
| 2026-04-22 02:49 | 27.97876 | 47.29303 | 31945 ft | 429 kts | 285° |
| 2026-04-22 02:49 | 27.99830 | 47.22923 | 31939 ft | 429 kts | 285° |
| 2026-04-22 02:50 | 28.01781 | 47.16543 | 31945 ft | 429 kts | 285° |
| 2026-04-22 02:50 | 28.03731 | 47.10151 | 31969 ft | 429 kts | 285° |
| 2026-04-22 02:51 | 28.05675 | 47.03769 | 31955 ft | 428 kts | 285° |
| 2026-04-22 02:51 | 28.07612 | 46.97394 | 31949 ft | 428 kts | 285° |
| 2026-04-22 02:52 | 28.09534 | 46.91062 | 31938 ft | 427 kts | 285° |
| 2026-04-22 02:52 | 28.11508 | 46.84712 | 31936 ft | 428 kts | 286° |
| 2026-04-22 02:53 | 28.13630 | 46.78406 | 31958 ft | 428 kts | 287° |
| 2026-04-22 02:53 | 28.15758 | 46.72110 | 31948 ft | 428 kts | 287° |
| 2026-04-22 02:54 | 28.17863 | 46.65813 | 31943 ft | 427 kts | 286° |
| 2026-04-22 02:54 | 28.19958 | 46.59506 | 31946 ft | 427 kts | 286° |
| 2026-04-22 02:55 | 28.22045 | 46.53203 | 31948 ft | 427 kts | 286° |
| 2026-04-22 02:55 | 28.24131 | 46.46894 | 31952 ft | 427 kts | 286° |
| 2026-04-22 02:56 | 28.26204 | 46.40611 | 31953 ft | 428 kts | 286° |
| 2026-04-22 02:56 | 28.28290 | 46.34282 | 31951 ft | 428 kts | 286° |
| 2026-04-22 02:57 | 28.30370 | 46.27959 | 31965 ft | 428 kts | 286° |
| 2026-04-22 02:57 | 28.32450 | 46.21624 | 31967 ft | 428 kts | 286° |
| 2026-04-22 02:58 | 28.34534 | 46.15266 | 31974 ft | 428 kts | 286° |
| 2026-04-22 02:58 | 28.36645 | 46.08944 | 31964 ft | 429 kts | 287° |
| 2026-04-22 02:59 | 28.38977 | 46.02711 | 31967 ft | 429 kts | 288° |
| 2026-04-22 02:59 | 28.41340 | 45.96503 | 31965 ft | 428 kts | 288° |
| 2026-04-22 03:00 | 28.43655 | 45.90336 | 31955 ft | 427 kts | 288° |
| 2026-04-22 03:00 | 28.45969 | 45.84114 | 31947 ft | 426 kts | 288° |
| 2026-04-22 03:01 | 28.48267 | 45.77906 | 31947 ft | 426 kts | 288° |
| 2026-04-22 03:01 | 28.50563 | 45.71695 | 31943 ft | 426 kts | 288° |
| 2026-04-22 03:02 | 28.52855 | 45.65483 | 31953 ft | 426 kts | 288° |
| 2026-04-22 03:02 | 28.55147 | 45.59264 | 31944 ft | 426 kts | 288° |
| 2026-04-22 03:03 | 28.57443 | 45.53022 | 31947 ft | 427 kts | 288° |
| 2026-04-22 03:03 | 28.59721 | 45.46819 | 31943 ft | 428 kts | 288° |
| 2026-04-22 03:04 | 28.62016 | 45.40561 | 31943 ft | 428 kts | 288° |
| 2026-04-22 03:04 | 28.64309 | 45.34297 | 31948 ft | 429 kts | 287° |
| 2026-04-22 03:05 | 28.66603 | 45.28019 | 31945 ft | 429 kts | 287° |
| 2026-04-22 03:05 | 28.68894 | 45.21740 | 31946 ft | 429 kts | 287° |
| 2026-04-22 03:06 | 28.71179 | 45.15465 | 31940 ft | 429 kts | 287° |
| 2026-04-22 03:06 | 28.73465 | 45.09177 | 31954 ft | 429 kts | 287° |
| 2026-04-22 03:07 | 28.75735 | 45.02922 | 31955 ft | 430 kts | 287° |
| 2026-04-22 03:07 | 28.78017 | 44.96624 | 31941 ft | 430 kts | 287° |
| 2026-04-22 03:08 | 28.80298 | 44.90315 | 31957 ft | 430 kts | 287° |
| 2026-04-22 03:08 | 28.82577 | 44.84003 | 31954 ft | 431 kts | 287° |
| 2026-04-22 03:09 | 28.84785 | 44.77653 | 31941 ft | 428 kts | 283° |
| 2026-04-22 03:09 | 28.86190 | 44.71110 | 31952 ft | 424 kts | 276° |
| 2026-04-22 03:10 | 28.86851 | 44.64457 | 31957 ft | 422 kts | 272° |
| 2026-04-22 03:10 | 28.87362 | 44.57821 | 31950 ft | 423 kts | 272° |
| 2026-04-22 03:11 | 28.87882 | 44.51135 | 31955 ft | 423 kts | 272° |
| 2026-04-22 03:11 | 28.88410 | 44.44442 | 31948 ft | 424 kts | 272° |
| 2026-04-22 03:12 | 28.88940 | 44.37733 | 31966 ft | 425 kts | 272° |
| 2026-04-22 03:12 | 28.89731 | 44.27644 | 31961 ft | 425 kts | 272° |
| 2026-04-22 03:13 | 28.90253 | 44.20927 | 31970 ft | 425 kts | 272° |
| 2026-04-22 03:13 | 28.90772 | 44.14213 | 31967 ft | 424 kts | 272° |
| 2026-04-22 03:14 | 28.91283 | 44.07551 | 31959 ft | 424 kts | 272° |
| 2026-04-22 03:14 | 28.91710 | 44.01947 | 31980 ft | 423 kts | 272° |
| 2026-04-22 03:15 | 28.92217 | 43.95256 | 31965 ft | 423 kts | 272° |
| 2026-04-22 03:15 | 28.92717 | 43.88616 | 31967 ft | 422 kts | 272° |
| 2026-04-22 03:16 | 28.93219 | 43.81907 | 31986 ft | 422 kts | 272° |
| 2026-04-22 03:16 | 28.93712 | 43.75270 | 31980 ft | 422 kts | 272° |
| 2026-04-22 03:17 | 28.94206 | 43.68576 | 31973 ft | 423 kts | 272° |
| 2026-04-22 03:17 | 28.94696 | 43.61880 | 31996 ft | 424 kts | 272° |
| 2026-04-22 03:18 | 28.95186 | 43.55167 | 31984 ft | 424 kts | 272° |
| 2026-04-22 03:18 | 28.95670 | 43.48449 | 31981 ft | 424 kts | 272° |
| 2026-04-22 03:19 | 28.96146 | 43.41736 | 31998 ft | 424 kts | 272° |
| 2026-04-22 03:19 | 28.96619 | 43.35018 | 31985 ft | 424 kts | 272° |
| 2026-04-22 03:20 | 28.97088 | 43.28313 | 31982 ft | 423 kts | 272° |
| 2026-04-22 03:20 | 28.97554 | 43.21617 | 31968 ft | 423 kts | 272° |
| 2026-04-22 03:21 | 28.98016 | 43.14926 | 31980 ft | 423 kts | 272° |
| 2026-04-22 03:21 | 28.98474 | 43.08234 | 32000 ft | 423 kts | 272° |
| 2026-04-22 03:22 | 28.98930 | 43.01522 | 32014 ft | 424 kts | 272° |
| 2026-04-22 03:22 | 28.99382 | 42.94845 | 31995 ft | 424 kts | 272° |
| 2026-04-22 03:23 | 28.99832 | 42.88122 | 31994 ft | 424 kts | 272° |
| 2026-04-22 03:23 | 29.00280 | 42.81400 | 31989 ft | 424 kts | 272° |
| 2026-04-22 03:24 | 29.00722 | 42.74695 | 32002 ft | 423 kts | 272° |
| 2026-04-22 03:24 | 29.01162 | 42.67988 | 32000 ft | 423 kts | 272° |
| 2026-04-22 03:25 | 29.01597 | 42.61287 | 32026 ft | 423 kts | 272° |
| 2026-04-22 03:25 | 29.02027 | 42.54620 | 31991 ft | 423 kts | 272° |
| 2026-04-22 03:26 | 29.02456 | 42.47918 | 32010 ft | 423 kts | 272° |
| 2026-04-22 03:26 | 29.02882 | 42.41208 | 32016 ft | 424 kts | 272° |
| 2026-04-22 03:27 | 29.03306 | 42.34484 | 32014 ft | 424 kts | 272° |
| 2026-04-22 03:27 | 29.03727 | 42.27757 | 32021 ft | 424 kts | 272° |
| 2026-04-22 03:28 | 29.04145 | 42.21029 | 32020 ft | 424 kts | 271° |
| 2026-04-22 03:28 | 29.04559 | 42.14304 | 32024 ft | 424 kts | 271° |
| 2026-04-22 03:29 | 29.04971 | 42.07579 | 32027 ft | 424 kts | 271° |
| 2026-04-22 03:29 | 29.05378 | 42.00906 | 32032 ft | 423 kts | 271° |
| 2026-04-22 03:30 | 29.05783 | 41.94190 | 32041 ft | 423 kts | 271° |
| 2026-04-22 03:30 | 29.06188 | 41.87477 | 32022 ft | 423 kts | 271° |
| 2026-04-22 03:31 | 29.06590 | 41.80767 | 32030 ft | 423 kts | 271° |
| 2026-04-22 03:31 | 29.06991 | 41.74048 | 32044 ft | 424 kts | 271° |
| 2026-04-22 03:32 | 29.07387 | 41.67330 | 32041 ft | 424 kts | 271° |
| 2026-04-22 03:32 | 29.07780 | 41.60605 | 32032 ft | 424 kts | 271° |
| 2026-04-22 03:33 | 29.08170 | 41.53887 | 32057 ft | 424 kts | 271° |
| 2026-04-22 03:33 | 29.08558 | 41.47158 | 32050 ft | 424 kts | 271° |
| 2026-04-22 03:34 | 29.08938 | 41.40471 | 32056 ft | 425 kts | 271° |
| 2026-04-22 03:34 | 29.09126 | 41.37097 | 32242 ft | 426 kts | 271° |
| 2026-04-22 03:34 | 29.09313 | 41.33725 | 32607 ft | 423 kts | 271° |
| 2026-04-22 03:35 | 29.09498 | 41.30368 | 32999 ft | 420 kts | 271° |
| 2026-04-22 03:35 | 29.09681 | 41.27042 | 33378 ft | 417 kts | 271° |
| 2026-04-22 03:35 | 29.09862 | 41.23734 | 33706 ft | 416 kts | 271° |
| 2026-04-22 03:35 | 29.10041 | 41.20437 | 33937 ft | 415 kts | 271° |
| 2026-04-22 03:36 | 29.10397 | 41.13826 | 34048 ft | 417 kts | 271° |
| 2026-04-22 03:36 | 29.10752 | 41.07218 | 34052 ft | 415 kts | 271° |
| 2026-04-22 03:37 | 29.11102 | 41.00649 | 34055 ft | 413 kts | 271° |
| 2026-04-22 03:37 | 29.11445 | 40.94143 | 34063 ft | 412 kts | 271° |
| 2026-04-22 03:38 | 29.11786 | 40.87597 | 34071 ft | 412 kts | 271° |
| 2026-04-22 03:38 | 29.12124 | 40.81046 | 34062 ft | 413 kts | 271° |
| 2026-04-22 03:39 | 29.12461 | 40.74468 | 34060 ft | 414 kts | 271° |
| 2026-04-22 03:39 | 29.12795 | 40.67874 | 34070 ft | 415 kts | 271° |
| 2026-04-22 03:40 | 29.13127 | 40.61275 | 34065 ft | 416 kts | 271° |
| 2026-04-22 03:40 | 29.13229 | 40.54676 | 34069 ft | 415 kts | 266° |
| 2026-04-22 03:41 | 29.12994 | 40.48087 | 34067 ft | 415 kts | 266° |
| 2026-04-22 03:41 | 29.12772 | 40.41531 | 34078 ft | 415 kts | 266° |
| 2026-04-22 03:42 | 29.12551 | 40.34931 | 34067 ft | 415 kts | 266° |
| 2026-04-22 03:42 | 29.12329 | 40.28333 | 34087 ft | 414 kts | 266° |
| 2026-04-22 03:43 | 29.12105 | 40.21745 | 34082 ft | 414 kts | 267° |
| 2026-04-22 03:43 | 29.11876 | 40.15157 | 34085 ft | 414 kts | 266° |
| 2026-04-22 03:44 | 29.11644 | 40.08576 | 34077 ft | 414 kts | 266° |
| 2026-04-22 03:44 | 29.11410 | 40.02001 | 34106 ft | 413 kts | 266° |
| 2026-04-22 03:45 | 29.11173 | 39.95428 | 34075 ft | 413 kts | 266° |
| 2026-04-22 03:45 | 29.10949 | 39.88861 | 34073 ft | 413 kts | 268° |
| 2026-04-22 03:46 | 29.10961 | 39.82283 | 34075 ft | 413 kts | 269° |
| 2026-04-22 03:46 | 29.11032 | 39.75743 | 34077 ft | 414 kts | 269° |
| 2026-04-22 03:47 | 29.11078 | 39.69165 | 34077 ft | 414 kts | 269° |
| 2026-04-22 03:47 | 29.11101 | 39.62585 | 34076 ft | 414 kts | 269° |
| 2026-04-22 03:48 | 29.11116 | 39.55998 | 34086 ft | 414 kts | 269° |
| 2026-04-22 03:48 | 29.11128 | 39.49406 | 34072 ft | 415 kts | 269° |
| 2026-04-22 03:49 | 29.11136 | 39.42812 | 34069 ft | 415 kts | 269° |
| 2026-04-22 03:49 | 29.11142 | 39.36216 | 34067 ft | 415 kts | 269° |
| 2026-04-22 03:50 | 29.11144 | 39.29615 | 34059 ft | 414 kts | 269° |
| 2026-04-22 03:50 | 29.11144 | 39.23025 | 34062 ft | 414 kts | 269° |
| 2026-04-22 03:51 | 29.11140 | 39.16480 | 34063 ft | 414 kts | 269° |
| 2026-04-22 03:51 | 29.11132 | 39.09884 | 34067 ft | 414 kts | 269° |
| 2026-04-22 03:52 | 29.11122 | 39.03302 | 34062 ft | 414 kts | 269° |
| 2026-04-22 03:52 | 29.11109 | 38.96715 | 34059 ft | 414 kts | 269° |
| 2026-04-22 03:53 | 29.11091 | 38.90127 | 34064 ft | 414 kts | 268° |
| 2026-04-22 03:53 | 29.11065 | 38.83543 | 34070 ft | 414 kts | 268° |
| 2026-04-22 03:54 | 29.11035 | 38.76945 | 34062 ft | 415 kts | 268° |
| 2026-04-22 03:54 | 29.11004 | 38.70387 | 34062 ft | 415 kts | 268° |
| 2026-04-22 03:55 | 29.10969 | 38.63793 | 34063 ft | 414 kts | 268° |
| 2026-04-22 03:55 | 29.10931 | 38.57203 | 34063 ft | 414 kts | 268° |
| 2026-04-22 03:56 | 29.10890 | 38.50616 | 34057 ft | 414 kts | 268° |
| 2026-04-22 03:56 | 29.10846 | 38.44035 | 34059 ft | 414 kts | 268° |
| 2026-04-22 03:57 | 29.10798 | 38.37443 | 34060 ft | 414 kts | 268° |
| 2026-04-22 03:57 | 29.10743 | 38.30856 | 34064 ft | 414 kts | 268° |
| 2026-04-22 03:58 | 29.10681 | 38.24269 | 34063 ft | 414 kts | 268° |
| 2026-04-22 03:58 | 29.10618 | 38.17694 | 34066 ft | 414 kts | 268° |
| 2026-04-22 03:59 | 29.10563 | 38.12212 | 34059 ft | 415 kts | 268° |
| 2026-04-22 03:59 | 29.10483 | 38.04530 | 34063 ft | 416 kts | 268° |
| 2026-04-22 04:00 | 29.10410 | 37.97925 | 34054 ft | 415 kts | 268° |
| 2026-04-22 04:00 | 29.10347 | 37.92437 | 34055 ft | 415 kts | 268° |
| 2026-04-22 04:01 | 29.10268 | 37.85835 | 34057 ft | 415 kts | 268° |
| 2026-04-22 04:01 | 29.10187 | 37.79219 | 34053 ft | 415 kts | 268° |
| 2026-04-22 04:02 | 29.10102 | 37.72609 | 34055 ft | 415 kts | 268° |
| 2026-04-22 04:02 | 29.10013 | 37.66000 | 34053 ft | 416 kts | 268° |
| 2026-04-22 04:03 | 29.09922 | 37.59373 | 34053 ft | 417 kts | 268° |
| 2026-04-22 04:03 | 29.09827 | 37.52729 | 34051 ft | 418 kts | 268° |
| 2026-04-22 04:04 | 29.09754 | 37.46122 | 34056 ft | 418 kts | 268° |
| 2026-04-22 04:04 | 29.09717 | 37.39468 | 34050 ft | 419 kts | 268° |
| 2026-04-22 04:05 | 29.09677 | 37.32801 | 34027 ft | 419 kts | 268° |
| 2026-04-22 04:05 | 29.09630 | 37.26149 | 34040 ft | 418 kts | 268° |
| 2026-04-22 04:06 | 29.09577 | 37.19496 | 34035 ft | 418 kts | 268° |
| 2026-04-22 04:06 | 29.09520 | 37.12849 | 34032 ft | 418 kts | 268° |
| 2026-04-22 04:07 | 29.09460 | 37.06194 | 34035 ft | 418 kts | 268° |
| 2026-04-22 04:07 | 29.09397 | 36.99537 | 34023 ft | 419 kts | 268° |
| 2026-04-22 04:08 | 29.09331 | 36.92876 | 34021 ft | 419 kts | 268° |
| 2026-04-22 04:08 | 29.09261 | 36.86241 | 34021 ft | 420 kts | 268° |
| 2026-04-22 04:09 | 29.09188 | 36.79568 | 34015 ft | 420 kts | 268° |
| 2026-04-22 04:09 | 29.09111 | 36.72881 | 34027 ft | 420 kts | 268° |
| 2026-04-22 04:10 | 29.09032 | 36.66198 | 34018 ft | 421 kts | 268° |
| 2026-04-22 04:10 | 29.08949 | 36.59511 | 34015 ft | 420 kts | 268° |
| 2026-04-22 04:11 | 29.08863 | 36.52837 | 34014 ft | 420 kts | 268° |
| 2026-04-22 04:11 | 29.08766 | 36.46163 | 34022 ft | 420 kts | 268° |
| 2026-04-22 04:12 | 29.08591 | 36.39480 | 34024 ft | 420 kts | 267° |
| 2026-04-22 04:12 | 29.08395 | 36.32800 | 34028 ft | 421 kts | 267° |
| 2026-04-22 04:13 | 29.08202 | 36.26109 | 34027 ft | 421 kts | 267° |
| 2026-04-22 04:13 | 29.08013 | 36.19460 | 34035 ft | 421 kts | 268° |
| 2026-04-22 04:14 | 29.07820 | 36.12756 | 34036 ft | 422 kts | 267° |
| 2026-04-22 04:14 | 29.07624 | 36.06045 | 34028 ft | 422 kts | 267° |
| 2026-04-22 04:15 | 29.07424 | 35.99335 | 34035 ft | 422 kts | 267° |
| 2026-04-22 04:15 | 29.07222 | 35.92629 | 34008 ft | 422 kts | 267° |
| 2026-04-22 04:16 | 29.06912 | 35.82583 | 34039 ft | 421 kts | 267° |
| 2026-04-22 04:17 | 29.06701 | 35.75899 | 34042 ft | 420 kts | 267° |
| 2026-04-22 04:17 | 29.06487 | 35.69211 | 34042 ft | 421 kts | 267° |
| 2026-04-22 04:18 | 29.06270 | 35.62511 | 34040 ft | 421 kts | 267° |
| 2026-04-22 04:18 | 29.06049 | 35.55817 | 34046 ft | 422 kts | 267° |
| 2026-04-22 04:19 | 29.05827 | 35.49162 | 34050 ft | 422 kts | 267° |
| 2026-04-22 04:19 | 29.05598 | 35.42443 | 34028 ft | 423 kts | 267° |
| 2026-04-22 04:20 | 29.05366 | 35.35715 | 34016 ft | 423 kts | 267° |
| 2026-04-22 04:20 | 29.05131 | 35.28987 | 34015 ft | 424 kts | 267° |
| 2026-04-22 04:21 | 29.04893 | 35.22246 | 33984 ft | 424 kts | 267° |
| 2026-04-22 04:21 | 29.04650 | 35.15520 | 33997 ft | 424 kts | 267° |
| 2026-04-22 04:22 | 29.04405 | 35.08799 | 33997 ft | 423 kts | 267° |
| 2026-04-22 04:22 | 29.04157 | 35.02084 | 33990 ft | 422 kts | 267° |
| 2026-04-22 04:23 | 29.03907 | 34.95385 | 34001 ft | 422 kts | 267° |
| 2026-04-22 04:23 | 29.03652 | 34.88673 | 33988 ft | 423 kts | 267° |
| 2026-04-22 04:24 | 29.03419 | 34.81954 | 33987 ft | 423 kts | 268° |
| 2026-04-22 04:24 | 29.03284 | 34.75236 | 33992 ft | 422 kts | 268° |
| 2026-04-22 04:25 | 29.03533 | 34.68536 | 34002 ft | 423 kts | 276° |
| 2026-04-22 04:25 | 29.04621 | 34.61961 | 34018 ft | 425 kts | 282° |
| 2026-04-22 04:26 | 29.06401 | 34.55445 | 34016 ft | 427 kts | 284° |
| 2026-04-22 04:26 | 29.08227 | 34.49014 | 34020 ft | 428 kts | 285° |
| 2026-04-22 04:27 | 29.10055 | 34.42540 | 34033 ft | 427 kts | 284° |
| 2026-04-22 04:27 | 29.11861 | 34.36049 | 34041 ft | 428 kts | 284° |
| 2026-04-22 04:28 | 29.13663 | 34.29549 | 34041 ft | 428 kts | 284° |
| 2026-04-22 04:28 | 29.15460 | 34.23055 | 34040 ft | 428 kts | 284° |
| 2026-04-22 04:29 | 29.17254 | 34.16562 | 34044 ft | 428 kts | 284° |
| 2026-04-22 04:29 | 29.19046 | 34.10062 | 34041 ft | 428 kts | 285° |
| 2026-04-22 04:30 | 29.20833 | 34.03563 | 34036 ft | 428 kts | 284° |
| 2026-04-22 04:30 | 29.22605 | 33.97105 | 34038 ft | 428 kts | 284° |
| 2026-04-22 04:31 | 29.24387 | 33.90599 | 34037 ft | 428 kts | 284° |
| 2026-04-22 04:31 | 29.26168 | 33.84083 | 34035 ft | 429 kts | 284° |
| 2026-04-22 04:32 | 29.27947 | 33.77560 | 34038 ft | 429 kts | 284° |
| 2026-04-22 04:32 | 29.29722 | 33.71039 | 34038 ft | 429 kts | 284° |
| 2026-04-22 04:33 | 29.31494 | 33.64513 | 34027 ft | 429 kts | 284° |
| 2026-04-22 04:33 | 29.33262 | 33.57989 | 34033 ft | 429 kts | 284° |
| 2026-04-22 04:34 | 29.35028 | 33.51459 | 34027 ft | 429 kts | 284° |
| 2026-04-22 04:34 | 29.36777 | 33.44975 | 34027 ft | 428 kts | 284° |
| 2026-04-22 04:35 | 29.38537 | 33.38440 | 34037 ft | 428 kts | 284° |
| 2026-04-22 04:35 | 29.40290 | 33.31913 | 34026 ft | 429 kts | 284° |
| 2026-04-22 04:36 | 29.42042 | 33.25378 | 34030 ft | 428 kts | 284° |
| 2026-04-22 04:36 | 29.43793 | 33.18835 | 34028 ft | 429 kts | 284° |
| 2026-04-22 04:37 | 29.45538 | 33.12294 | 34037 ft | 429 kts | 284° |
| 2026-04-22 04:37 | 29.47285 | 33.05738 | 34022 ft | 429 kts | 284° |
| 2026-04-22 04:38 | 29.49025 | 32.99191 | 34028 ft | 429 kts | 284° |
| 2026-04-22 04:38 | 29.50760 | 32.92647 | 34020 ft | 429 kts | 284° |
| 2026-04-22 04:39 | 29.52492 | 32.86102 | 34027 ft | 428 kts | 284° |
| 2026-04-22 04:39 | 29.54221 | 32.79554 | 34020 ft | 428 kts | 284° |
| 2026-04-22 04:40 | 29.55945 | 32.73007 | 34018 ft | 428 kts | 284° |
| 2026-04-22 04:40 | 29.57665 | 32.66464 | 34021 ft | 428 kts | 284° |
| 2026-04-22 04:41 | 29.59381 | 32.59922 | 34037 ft | 428 kts | 284° |
| 2026-04-22 04:41 | 29.61096 | 32.53368 | 34025 ft | 428 kts | 284° |
| 2026-04-22 04:42 | 29.62796 | 32.46859 | 34030 ft | 428 kts | 284° |
| 2026-04-22 04:42 | 29.64503 | 32.40305 | 34026 ft | 428 kts | 284° |
| 2026-04-22 04:43 | 29.66207 | 32.33752 | 34038 ft | 428 kts | 284° |
| 2026-04-22 04:43 | 29.67907 | 32.27197 | 34023 ft | 428 kts | 284° |
| 2026-04-22 04:44 | 29.69329 | 32.21705 | 34032 ft | 427 kts | 284° |
| 2026-04-22 04:44 | 29.71012 | 32.15186 | 34036 ft | 427 kts | 284° |
| 2026-04-22 04:45 | 29.72704 | 32.08624 | 34029 ft | 428 kts | 283° |
| 2026-04-22 04:45 | 29.74395 | 32.02046 | 34035 ft | 428 kts | 283° |
| 2026-04-22 04:46 | 29.76081 | 31.95478 | 34033 ft | 428 kts | 283° |
| 2026-04-22 04:46 | 29.78033 | 31.89028 | 34027 ft | 431 kts | 291° |
| 2026-04-22 04:47 | 29.80858 | 31.82914 | 34029 ft | 434 kts | 297° |
| 2026-04-22 04:47 | 29.84402 | 31.77236 | 34039 ft | 437 kts | 302° |
| 2026-04-22 04:48 | 29.88064 | 31.71643 | 34033 ft | 437 kts | 301° |
| 2026-04-22 04:48 | 29.91685 | 31.66021 | 34031 ft | 437 kts | 301° |
| 2026-04-22 04:49 | 29.95307 | 31.60400 | 34036 ft | 436 kts | 301° |
| 2026-04-22 04:49 | 29.98932 | 31.54779 | 34044 ft | 436 kts | 301° |
| 2026-04-22 04:50 | 30.02552 | 31.49155 | 34056 ft | 437 kts | 301° |
| 2026-04-22 04:50 | 30.06175 | 31.43517 | 34053 ft | 438 kts | 301° |
| 2026-04-22 04:51 | 30.09952 | 31.38036 | 34047 ft | 442 kts | 307° |
| 2026-04-22 04:51 | 30.14450 | 31.33116 | 34056 ft | 446 kts | 311° |
| 2026-04-22 04:52 | 30.19052 | 31.28230 | 34041 ft | 446 kts | 311° |
| 2026-04-22 04:52 | 30.23580 | 31.23385 | 34035 ft | 447 kts | 311° |
| 2026-04-22 04:53 | 30.28137 | 31.18487 | 34042 ft | 447 kts | 311° |
| 2026-04-22 04:53 | 30.32693 | 31.13580 | 34044 ft | 448 kts | 311° |
| 2026-04-22 04:54 | 30.37251 | 31.08665 | 34046 ft | 448 kts | 311° |
| 2026-04-22 04:54 | 30.41813 | 31.03739 | 34056 ft | 448 kts | 311° |
| 2026-04-22 04:55 | 30.46388 | 30.98794 | 34054 ft | 449 kts | 311° |
| 2026-04-22 04:55 | 30.50955 | 30.93849 | 34074 ft | 450 kts | 312° |
| 2026-04-22 04:56 | 30.55510 | 30.88911 | 34057 ft | 452 kts | 312° |
| 2026-04-22 04:56 | 30.60135 | 30.83892 | 34053 ft | 453 kts | 312° |
| 2026-04-22 04:57 | 30.64739 | 30.78887 | 34054 ft | 453 kts | 312° |
| 2026-04-22 04:57 | 30.69344 | 30.73875 | 34051 ft | 454 kts | 312° |
| 2026-04-22 04:58 | 30.73926 | 30.68882 | 34053 ft | 454 kts | 312° |
| 2026-04-22 04:58 | 30.78525 | 30.63862 | 34051 ft | 453 kts | 312° |
| 2026-04-22 04:59 | 30.83119 | 30.58841 | 34070 ft | 453 kts | 312° |
| 2026-04-22 04:59 | 30.87716 | 30.53809 | 34055 ft | 453 kts | 312° |
| 2026-04-22 05:00 | 30.92310 | 30.48775 | 34051 ft | 454 kts | 312° |
| 2026-04-22 05:00 | 30.96901 | 30.43736 | 34053 ft | 454 kts | 312° |
| 2026-04-22 05:01 | 31.01492 | 30.38689 | 34057 ft | 454 kts | 313° |
| 2026-04-22 05:01 | 31.06033 | 30.33634 | 34047 ft | 452 kts | 309° |
| 2026-04-22 05:02 | 31.09570 | 30.27673 | 34043 ft | 445 kts | 295° |
| 2026-04-22 05:02 | 31.11824 | 30.20958 | 34050 ft | 441 kts | 285° |
| 2026-04-22 05:03 | 31.13622 | 30.14142 | 34050 ft | 443 kts | 285° |
| 2026-04-22 05:03 | 31.15479 | 30.07278 | 34056 ft | 444 kts | 286° |
| 2026-04-22 05:04 | 31.17369 | 30.00384 | 34046 ft | 446 kts | 287° |
| 2026-04-22 05:04 | 31.19935 | 29.93768 | 34033 ft | 449 kts | 296° |
| 2026-04-22 05:05 | 31.23366 | 29.87649 | 34032 ft | 452 kts | 303° |
| 2026-04-22 05:05 | 31.27104 | 29.81738 | 34023 ft | 452 kts | 303° |
| 2026-04-22 05:06 | 31.30839 | 29.75808 | 34027 ft | 452 kts | 303° |
| 2026-04-22 05:06 | 31.34528 | 29.69898 | 34033 ft | 453 kts | 303° |
| 2026-04-22 05:07 | 31.38233 | 29.63937 | 34039 ft | 453 kts | 303° |
| 2026-04-22 05:07 | 31.41933 | 29.57974 | 34039 ft | 453 kts | 303° |
| 2026-04-22 05:08 | 31.45634 | 29.52000 | 34047 ft | 453 kts | 303° |
| 2026-04-22 05:08 | 31.49329 | 29.46028 | 34040 ft | 453 kts | 303° |
| 2026-04-22 05:09 | 31.53023 | 29.40049 | 34040 ft | 452 kts | 303° |
| 2026-04-22 05:09 | 31.56686 | 29.34110 | 34041 ft | 452 kts | 303° |
| 2026-04-22 05:10 | 31.60369 | 29.28121 | 34041 ft | 452 kts | 303° |
| 2026-04-22 05:10 | 31.64029 | 29.22118 | 34047 ft | 452 kts | 302° |
| 2026-04-22 05:11 | 31.67681 | 29.16116 | 34051 ft | 451 kts | 302° |
| 2026-04-22 05:11 | 31.71331 | 29.10115 | 34058 ft | 451 kts | 302° |
| 2026-04-22 05:12 | 31.74983 | 29.04107 | 34052 ft | 451 kts | 302° |
| 2026-04-22 05:12 | 31.78632 | 28.98111 | 34055 ft | 451 kts | 302° |
| 2026-04-22 05:13 | 31.82278 | 28.92112 | 34056 ft | 451 kts | 302° |
| 2026-04-22 05:13 | 31.85897 | 28.86144 | 34052 ft | 451 kts | 302° |
| 2026-04-22 05:14 | 31.89536 | 28.80133 | 34052 ft | 451 kts | 302° |
| 2026-04-22 05:14 | 31.93169 | 28.74122 | 34050 ft | 451 kts | 302° |
| 2026-04-22 05:15 | 31.96807 | 28.68093 | 34053 ft | 451 kts | 302° |
| 2026-04-22 05:15 | 32.00439 | 28.62064 | 34053 ft | 451 kts | 303° |
| 2026-04-22 05:16 | 32.04066 | 28.56034 | 34052 ft | 451 kts | 302° |
| 2026-04-22 05:16 | 32.07695 | 28.49992 | 34053 ft | 451 kts | 302° |
| 2026-04-22 05:17 | 32.11319 | 28.43950 | 34047 ft | 451 kts | 302° |
| 2026-04-22 05:17 | 32.14940 | 28.37902 | 34050 ft | 451 kts | 302° |
| 2026-04-22 05:18 | 32.20342 | 28.28860 | 34048 ft | 451 kts | 303° |
| 2026-04-22 05:18 | 32.23954 | 28.22804 | 34049 ft | 450 kts | 303° |
| 2026-04-22 05:19 | 32.27558 | 28.16750 | 34046 ft | 450 kts | 303° |
| 2026-04-22 05:19 | 32.31158 | 28.10694 | 34046 ft | 450 kts | 303° |
| 2026-04-22 05:20 | 32.34752 | 28.04638 | 34051 ft | 450 kts | 303° |
| 2026-04-22 05:20 | 32.38346 | 27.98571 | 34045 ft | 450 kts | 303° |
| 2026-04-22 05:21 | 32.41936 | 27.92503 | 34047 ft | 450 kts | 303° |
| 2026-04-22 05:21 | 32.45525 | 27.86427 | 34046 ft | 450 kts | 303° |
| 2026-04-22 05:22 | 32.49087 | 27.80387 | 34046 ft | 450 kts | 303° |
| 2026-04-22 05:22 | 32.52668 | 27.74304 | 34051 ft | 450 kts | 303° |
| 2026-04-22 05:23 | 32.56253 | 27.68204 | 34046 ft | 450 kts | 303° |
| 2026-04-22 05:23 | 32.59834 | 27.62103 | 34047 ft | 451 kts | 303° |
| 2026-04-22 05:24 | 32.63411 | 27.55998 | 34044 ft | 451 kts | 303° |
| 2026-04-22 05:24 | 32.66988 | 27.49882 | 34043 ft | 451 kts | 303° |
| 2026-04-22 05:25 | 32.70558 | 27.43768 | 34044 ft | 451 kts | 303° |
| 2026-04-22 05:25 | 32.74125 | 27.37651 | 34043 ft | 450 kts | 303° |
| 2026-04-22 05:26 | 32.77691 | 27.31524 | 34043 ft | 450 kts | 303° |
| 2026-04-22 05:26 | 32.81252 | 27.25397 | 34044 ft | 450 kts | 303° |
| 2026-04-22 05:27 | 32.84784 | 27.19309 | 34041 ft | 450 kts | 303° |
| 2026-04-22 05:27 | 32.88335 | 27.13177 | 34041 ft | 450 kts | 303° |
| 2026-04-22 05:28 | 32.91883 | 27.07041 | 34041 ft | 450 kts | 303° |
| 2026-04-22 05:28 | 32.95433 | 27.00893 | 34041 ft | 450 kts | 303° |
| 2026-04-22 05:29 | 32.98974 | 26.94750 | 34041 ft | 450 kts | 303° |
| 2026-04-22 05:29 | 33.01917 | 26.89635 | 34041 ft | 450 kts | 303° |
| 2026-04-22 05:30 | 33.05453 | 26.83481 | 34040 ft | 450 kts | 303° |
| 2026-04-22 05:30 | 33.08982 | 26.77330 | 34040 ft | 449 kts | 303° |
| 2026-04-22 05:31 | 33.12507 | 26.71175 | 34039 ft | 449 kts | 303° |
| 2026-04-22 05:31 | 33.16029 | 26.65015 | 34038 ft | 449 kts | 303° |
| 2026-04-22 05:32 | 33.19523 | 26.58894 | 34038 ft | 449 kts | 303° |
| 2026-04-22 05:32 | 33.23035 | 26.52732 | 34042 ft | 448 kts | 303° |
| 2026-04-22 05:33 | 33.26538 | 26.46574 | 34037 ft | 448 kts | 303° |
| 2026-04-22 05:33 | 33.30043 | 26.40403 | 34047 ft | 448 kts | 303° |
| 2026-04-22 05:34 | 33.33543 | 26.34230 | 34035 ft | 448 kts | 303° |
| 2026-04-22 05:34 | 33.37018 | 26.28091 | 34036 ft | 448 kts | 303° |
| 2026-04-22 05:35 | 33.40508 | 26.21916 | 34043 ft | 448 kts | 303° |
| 2026-04-22 05:35 | 33.44014 | 26.15702 | 34031 ft | 447 kts | 303° |
| 2026-04-22 05:36 | 33.47470 | 26.09566 | 34031 ft | 447 kts | 303° |
| 2026-04-22 05:36 | 33.50940 | 26.03394 | 34033 ft | 446 kts | 303° |
| 2026-04-22 05:37 | 33.54408 | 25.97216 | 34035 ft | 446 kts | 303° |
| 2026-04-22 05:37 | 33.57870 | 25.91039 | 34037 ft | 446 kts | 303° |
| 2026-04-22 05:38 | 33.61325 | 25.84862 | 34030 ft | 445 kts | 303° |
| 2026-04-22 05:38 | 33.64773 | 25.78690 | 34029 ft | 445 kts | 302° |
| 2026-04-22 05:39 | 33.68218 | 25.72511 | 34030 ft | 444 kts | 302° |
| 2026-04-22 05:39 | 33.71657 | 25.66332 | 34033 ft | 445 kts | 302° |
| 2026-04-22 05:40 | 33.75092 | 25.60149 | 34030 ft | 445 kts | 302° |
| 2026-04-22 05:40 | 33.78513 | 25.53983 | 34026 ft | 445 kts | 302° |
| 2026-04-22 05:41 | 33.81947 | 25.47782 | 34028 ft | 445 kts | 302° |
| 2026-04-22 05:41 | 33.85377 | 25.41576 | 34027 ft | 445 kts | 302° |
| 2026-04-22 05:42 | 33.88806 | 25.35363 | 34027 ft | 445 kts | 302° |
| 2026-04-22 05:42 | 33.92201 | 25.29201 | 34031 ft | 444 kts | 302° |
| 2026-04-22 05:43 | 33.95611 | 25.22999 | 34020 ft | 444 kts | 302° |
| 2026-04-22 05:43 | 33.98968 | 25.16755 | 34017 ft | 443 kts | 298° |
| 2026-04-22 05:44 | 34.01560 | 25.10041 | 34019 ft | 442 kts | 289° |
| 2026-04-22 05:44 | 34.03618 | 25.03071 | 34021 ft | 442 kts | 290° |
| 2026-04-22 05:45 | 34.05690 | 24.96093 | 34022 ft | 441 kts | 290° |
| 2026-04-22 05:45 | 34.07769 | 24.89127 | 34021 ft | 441 kts | 290° |
| 2026-04-22 05:46 | 34.09845 | 24.82174 | 34022 ft | 441 kts | 290° |
| 2026-04-22 05:46 | 34.11922 | 24.75206 | 34022 ft | 441 kts | 290° |
| 2026-04-22 05:47 | 34.13992 | 24.68243 | 34022 ft | 440 kts | 290° |
| 2026-04-22 05:47 | 34.16057 | 24.61279 | 34019 ft | 440 kts | 290° |
| 2026-04-22 05:48 | 34.18105 | 24.54356 | 34019 ft | 441 kts | 290° |
| 2026-04-22 05:48 | 34.20162 | 24.47383 | 34029 ft | 441 kts | 290° |
| 2026-04-22 05:49 | 34.22221 | 24.40391 | 34019 ft | 442 kts | 290° |
| 2026-04-22 05:49 | 34.24276 | 24.33391 | 34023 ft | 442 kts | 290° |
| 2026-04-22 05:50 | 34.26330 | 24.26382 | 34018 ft | 442 kts | 289° |
| 2026-04-22 05:50 | 34.28378 | 24.19373 | 34019 ft | 442 kts | 289° |
| 2026-04-22 05:51 | 34.30420 | 24.12368 | 34020 ft | 442 kts | 289° |
| 2026-04-22 05:51 | 34.32460 | 24.05354 | 34008 ft | 442 kts | 289° |
| 2026-04-22 05:52 | 34.34492 | 23.98350 | 34019 ft | 441 kts | 289° |
| 2026-04-22 05:52 | 34.36520 | 23.91343 | 34019 ft | 441 kts | 289° |
| 2026-04-22 05:53 | 34.38543 | 23.84338 | 34019 ft | 441 kts | 289° |
| 2026-04-22 05:53 | 34.40563 | 23.77321 | 34019 ft | 441 kts | 289° |
| 2026-04-22 05:54 | 34.42583 | 23.70291 | 34018 ft | 441 kts | 289° |
| 2026-04-22 05:54 | 34.44581 | 23.63319 | 34019 ft | 441 kts | 289° |
| 2026-04-22 05:55 | 34.46589 | 23.56294 | 34018 ft | 441 kts | 289° |
| 2026-04-22 05:55 | 34.48595 | 23.49258 | 34020 ft | 441 kts | 289° |
| 2026-04-22 05:56 | 34.50599 | 23.42215 | 34016 ft | 442 kts | 289° |
| 2026-04-22 05:56 | 34.52596 | 23.35175 | 34020 ft | 442 kts | 289° |
| 2026-04-22 05:57 | 34.54592 | 23.28123 | 34019 ft | 442 kts | 289° |
| 2026-04-22 05:57 | 34.56581 | 23.21077 | 34019 ft | 442 kts | 289° |
| 2026-04-22 05:58 | 34.58567 | 23.14023 | 34019 ft | 442 kts | 289° |
| 2026-04-22 05:58 | 34.60551 | 23.06962 | 34015 ft | 442 kts | 289° |
| 2026-04-22 05:59 | 34.62441 | 22.99872 | 34013 ft | 442 kts | 285° |
| 2026-04-22 05:59 | 34.63529 | 22.92537 | 34020 ft | 442 kts | 279° |
| 2026-04-22 06:00 | 34.64473 | 22.85161 | 34018 ft | 442 kts | 280° |
| 2026-04-22 06:00 | 34.65427 | 22.77832 | 34022 ft | 442 kts | 280° |
| 2026-04-22 06:01 | 34.66392 | 22.70447 | 34020 ft | 442 kts | 280° |
| 2026-04-22 06:01 | 34.67354 | 22.63071 | 34019 ft | 442 kts | 280° |
| 2026-04-22 06:02 | 34.68310 | 22.55694 | 34022 ft | 442 kts | 279° |
| 2026-04-22 06:02 | 34.69260 | 22.48325 | 34022 ft | 442 kts | 279° |
| 2026-04-22 06:03 | 34.70207 | 22.40950 | 34018 ft | 441 kts | 279° |
| 2026-04-22 06:03 | 34.71147 | 22.33584 | 34019 ft | 441 kts | 279° |
| 2026-04-22 06:04 | 34.72084 | 22.26211 | 34018 ft | 441 kts | 279° |
| 2026-04-22 06:04 | 34.73016 | 22.18836 | 34019 ft | 441 kts | 279° |
| 2026-04-22 06:05 | 34.73938 | 22.11511 | 34016 ft | 441 kts | 279° |
| 2026-04-22 06:05 | 34.74862 | 22.04129 | 34017 ft | 441 kts | 279° |
| 2026-04-22 06:06 | 34.75781 | 21.96749 | 34016 ft | 441 kts | 279° |
| 2026-04-22 06:06 | 34.76696 | 21.89366 | 34016 ft | 441 kts | 279° |
| 2026-04-22 06:07 | 34.77606 | 21.81984 | 34016 ft | 441 kts | 279° |
| 2026-04-22 06:07 | 34.78512 | 21.74593 | 34012 ft | 441 kts | 279° |
| 2026-04-22 06:08 | 34.79414 | 21.67201 | 34012 ft | 442 kts | 279° |
| 2026-04-22 06:08 | 34.80312 | 21.59805 | 34014 ft | 441 kts | 279° |
| 2026-04-22 06:09 | 34.81204 | 21.52416 | 34008 ft | 441 kts | 279° |
| 2026-04-22 06:09 | 34.82093 | 21.45021 | 34008 ft | 441 kts | 279° |
| 2026-04-22 06:10 | 34.82922 | 21.37614 | 34005 ft | 442 kts | 276° |
| 2026-04-22 06:10 | 34.83395 | 21.30168 | 34010 ft | 442 kts | 275° |
| 2026-04-22 06:11 | 34.83833 | 21.22755 | 34006 ft | 442 kts | 275° |
| 2026-04-22 06:11 | 34.84278 | 21.15297 | 34003 ft | 442 kts | 275° |
| 2026-04-22 06:12 | 34.84727 | 21.07837 | 34006 ft | 442 kts | 275° |
| 2026-04-22 06:12 | 34.85175 | 21.00372 | 34005 ft | 442 kts | 275° |
| 2026-04-22 06:13 | 34.85621 | 20.92882 | 34005 ft | 442 kts | 275° |
| 2026-04-22 06:13 | 34.86061 | 20.85407 | 34005 ft | 443 kts | 275° |
| 2026-04-22 06:14 | 34.86424 | 20.79191 | 34009 ft | 443 kts | 275° |
| 2026-04-22 06:14 | 34.86856 | 20.71708 | 33999 ft | 442 kts | 275° |
| 2026-04-22 06:15 | 34.87282 | 20.64239 | 34000 ft | 442 kts | 275° |
| 2026-04-22 06:15 | 34.87704 | 20.56762 | 34000 ft | 442 kts | 275° |
| 2026-04-22 06:16 | 34.88121 | 20.49304 | 33999 ft | 442 kts | 275° |
| 2026-04-22 06:16 | 34.88533 | 20.41846 | 34001 ft | 441 kts | 275° |
| 2026-04-22 06:17 | 34.88940 | 20.34384 | 33999 ft | 441 kts | 275° |
| 2026-04-22 06:17 | 34.89343 | 20.26931 | 33998 ft | 441 kts | 275° |
| 2026-04-22 06:18 | 34.89739 | 20.19523 | 33994 ft | 441 kts | 275° |
| 2026-04-22 06:18 | 34.90133 | 20.12052 | 34001 ft | 441 kts | 275° |
| 2026-04-22 06:19 | 34.90522 | 20.04602 | 33995 ft | 441 kts | 275° |
| 2026-04-22 06:19 | 34.90906 | 19.97143 | 33994 ft | 441 kts | 275° |
| 2026-04-22 06:20 | 34.91286 | 19.89684 | 33992 ft | 441 kts | 275° |
| 2026-04-22 06:20 | 34.91658 | 19.82286 | 33991 ft | 441 kts | 275° |
| 2026-04-22 06:21 | 34.92029 | 19.74833 | 33988 ft | 441 kts | 275° |
| 2026-04-22 06:21 | 34.92395 | 19.67371 | 33990 ft | 441 kts | 275° |
| 2026-04-22 06:22 | 34.92757 | 19.59906 | 33988 ft | 441 kts | 275° |
| 2026-04-22 06:22 | 34.93115 | 19.52434 | 33990 ft | 441 kts | 275° |
| 2026-04-22 06:23 | 34.93468 | 19.44966 | 33983 ft | 441 kts | 275° |
| 2026-04-22 06:23 | 34.93816 | 19.37491 | 33987 ft | 441 kts | 275° |
| 2026-04-22 06:24 | 34.94331 | 19.26276 | 33986 ft | 442 kts | 275° |
| 2026-04-22 06:25 | 34.94665 | 19.18852 | 33968 ft | 441 kts | 275° |
| 2026-04-22 06:25 | 34.94997 | 19.11379 | 33974 ft | 441 kts | 275° |
| 2026-04-22 06:26 | 34.95324 | 19.03932 | 33986 ft | 440 kts | 275° |
| 2026-04-22 06:26 | 34.95646 | 18.96480 | 33986 ft | 439 kts | 275° |
| 2026-04-22 06:27 | 34.95964 | 18.89039 | 33985 ft | 439 kts | 275° |
| 2026-04-22 06:27 | 34.96276 | 18.81607 | 33984 ft | 439 kts | 275° |
| 2026-04-22 06:28 | 34.96584 | 18.74173 | 33981 ft | 439 kts | 275° |
| 2026-04-22 06:28 | 34.96887 | 18.66743 | 33980 ft | 439 kts | 275° |
| 2026-04-22 06:29 | 34.97185 | 18.59320 | 33984 ft | 438 kts | 275° |
| 2026-04-22 06:29 | 34.97479 | 18.51889 | 33983 ft | 438 kts | 275° |
| 2026-04-22 06:30 | 34.97769 | 18.44460 | 33984 ft | 438 kts | 275° |
| 2026-04-22 06:30 | 34.98054 | 18.37033 | 33985 ft | 438 kts | 275° |
| 2026-04-22 06:31 | 34.98334 | 18.29614 | 33989 ft | 438 kts | 275° |
| 2026-04-22 06:31 | 34.98609 | 18.22189 | 33990 ft | 438 kts | 275° |
| 2026-04-22 06:32 | 34.98879 | 18.14817 | 33979 ft | 438 kts | 275° |
| 2026-04-22 06:32 | 34.99145 | 18.07389 | 33978 ft | 438 kts | 275° |
| 2026-04-22 06:33 | 34.99408 | 17.99962 | 33978 ft | 438 kts | 275° |
| 2026-04-22 06:33 | 34.99665 | 17.92538 | 33979 ft | 438 kts | 275° |
| 2026-04-22 06:34 | 34.99918 | 17.85114 | 33983 ft | 438 kts | 275° |
| 2026-04-22 06:34 | 35.00167 | 17.77686 | 33983 ft | 438 kts | 275° |
| 2026-04-22 06:35 | 35.00411 | 17.70250 | 33988 ft | 438 kts | 275° |
| 2026-04-22 06:35 | 35.00650 | 17.62826 | 33985 ft | 438 kts | 275° |
| 2026-04-22 06:36 | 35.00883 | 17.55452 | 33984 ft | 437 kts | 275° |
| 2026-04-22 06:36 | 35.01113 | 17.48038 | 33984 ft | 437 kts | 275° |
| 2026-04-22 06:37 | 35.01339 | 17.40623 | 33974 ft | 437 kts | 275° |
| 2026-04-22 06:37 | 35.01560 | 17.33216 | 33977 ft | 436 kts | 275° |
| 2026-04-22 06:38 | 35.01776 | 17.25817 | 33980 ft | 436 kts | 275° |
| 2026-04-22 06:38 | 35.01987 | 17.18428 | 33981 ft | 436 kts | 275° |
| 2026-04-22 06:39 | 35.02194 | 17.11035 | 33976 ft | 436 kts | 274° |
| 2026-04-22 06:39 | 35.02396 | 17.03648 | 33959 ft | 435 kts | 274° |
| 2026-04-22 06:40 | 35.02594 | 16.96264 | 33974 ft | 435 kts | 274° |
| 2026-04-22 06:40 | 35.02787 | 16.88885 | 33978 ft | 435 kts | 274° |
| 2026-04-22 06:41 | 35.02974 | 16.81551 | 33979 ft | 435 kts | 274° |
| 2026-04-22 06:41 | 35.03159 | 16.74164 | 33977 ft | 435 kts | 274° |
| 2026-04-22 06:42 | 35.03339 | 16.66777 | 33974 ft | 436 kts | 274° |
| 2026-04-22 06:42 | 35.03514 | 16.59387 | 33978 ft | 436 kts | 274° |
| 2026-04-22 06:43 | 35.03685 | 16.51986 | 33977 ft | 436 kts | 274° |
| 2026-04-22 06:43 | 35.03852 | 16.44588 | 33974 ft | 436 kts | 274° |
| 2026-04-22 06:44 | 35.04014 | 16.37194 | 33970 ft | 436 kts | 274° |
| 2026-04-22 06:44 | 35.04171 | 16.29804 | 33972 ft | 436 kts | 274° |
| 2026-04-22 06:45 | 35.04324 | 16.22404 | 33977 ft | 436 kts | 274° |
| 2026-04-22 06:45 | 35.04473 | 16.15000 | 33987 ft | 436 kts | 274° |
| 2026-04-22 06:46 | 35.04616 | 16.07644 | 33971 ft | 436 kts | 274° |
| 2026-04-22 06:46 | 35.04756 | 16.00225 | 33970 ft | 436 kts | 274° |
| 2026-04-22 06:47 | 35.04892 | 15.92820 | 33971 ft | 436 kts | 274° |
| 2026-04-22 06:47 | 35.05023 | 15.85417 | 33977 ft | 437 kts | 274° |
| 2026-04-22 06:48 | 35.05149 | 15.78003 | 33972 ft | 437 kts | 274° |
| 2026-04-22 06:48 | 35.05271 | 15.70585 | 33982 ft | 437 kts | 274° |
| 2026-04-22 06:49 | 35.05389 | 15.63161 | 33966 ft | 437 kts | 273° |
| 2026-04-22 06:49 | 35.05501 | 15.55782 | 33970 ft | 437 kts | 273° |
| 2026-04-22 06:50 | 35.05609 | 15.48358 | 33964 ft | 438 kts | 273° |
| 2026-04-22 06:50 | 35.05713 | 15.40922 | 33969 ft | 438 kts | 273° |
| 2026-04-22 06:51 | 35.05813 | 15.33495 | 33978 ft | 438 kts | 273° |
| 2026-04-22 06:51 | 35.05908 | 15.26062 | 33965 ft | 438 kts | 273° |
| 2026-04-22 06:52 | 35.05999 | 15.18630 | 33974 ft | 437 kts | 273° |
| 2026-04-22 06:52 | 35.06084 | 15.11204 | 33979 ft | 438 kts | 273° |
| 2026-04-22 06:53 | 35.06166 | 15.03767 | 33972 ft | 438 kts | 273° |
| 2026-04-22 06:53 | 35.06242 | 14.96386 | 33969 ft | 438 kts | 273° |
| 2026-04-22 06:54 | 35.06315 | 14.88905 | 33967 ft | 438 kts | 273° |
| 2026-04-22 06:54 | 35.06383 | 14.81516 | 33975 ft | 438 kts | 273° |
| 2026-04-22 06:55 | 35.06446 | 14.74077 | 33970 ft | 438 kts | 273° |
| 2026-04-22 06:55 | 35.06505 | 14.66639 | 33970 ft | 438 kts | 272° |
| 2026-04-22 06:56 | 35.06559 | 14.59197 | 33981 ft | 438 kts | 272° |
| 2026-04-22 06:56 | 35.06609 | 14.51752 | 33974 ft | 438 kts | 272° |
| 2026-04-22 06:57 | 35.06654 | 14.44307 | 33964 ft | 438 kts | 272° |
| 2026-04-22 06:57 | 35.06695 | 14.36909 | 33973 ft | 438 kts | 272° |
| 2026-04-22 06:58 | 35.06731 | 14.29464 | 33977 ft | 438 kts | 272° |
| 2026-04-22 06:58 | 35.06762 | 14.22027 | 33967 ft | 438 kts | 272° |
| 2026-04-22 06:59 | 35.06785 | 14.15840 | 33967 ft | 438 kts | 272° |
| 2026-04-22 06:59 | 35.06809 | 14.08400 | 33966 ft | 438 kts | 272° |
| 2026-04-22 07:00 | 35.06827 | 14.00956 | 33967 ft | 438 kts | 272° |
| 2026-04-22 07:00 | 35.06842 | 13.93517 | 33972 ft | 438 kts | 272° |
| 2026-04-22 07:01 | 35.06851 | 13.86070 | 33970 ft | 438 kts | 272° |
| 2026-04-22 07:01 | 35.06856 | 13.78625 | 33966 ft | 439 kts | 272° |
| 2026-04-22 07:02 | 35.06857 | 13.71173 | 33967 ft | 439 kts | 272° |
| 2026-04-22 07:02 | 35.06853 | 13.63754 | 33964 ft | 440 kts | 272° |
| 2026-04-22 07:03 | 35.06844 | 13.56285 | 33964 ft | 440 kts | 272° |
| 2026-04-22 07:03 | 35.06831 | 13.48811 | 33962 ft | 440 kts | 272° |
| 2026-04-22 07:04 | 35.06814 | 13.41336 | 33965 ft | 440 kts | 272° |
| 2026-04-22 07:04 | 35.06791 | 13.33859 | 33967 ft | 441 kts | 272° |
| 2026-04-22 07:05 | 35.06764 | 13.26379 | 33969 ft | 441 kts | 272° |
| 2026-04-22 07:05 | 35.06733 | 13.18893 | 33963 ft | 441 kts | 272° |
| 2026-04-22 07:06 | 35.06697 | 13.11399 | 33959 ft | 441 kts | 271° |
| 2026-04-22 07:06 | 35.06656 | 13.03950 | 33961 ft | 441 kts | 271° |
| 2026-04-22 07:07 | 35.06611 | 12.96459 | 33961 ft | 441 kts | 271° |
| 2026-04-22 07:07 | 35.06561 | 12.88959 | 33958 ft | 442 kts | 271° |
| 2026-04-22 07:08 | 35.06506 | 12.81463 | 33953 ft | 441 kts | 271° |
| 2026-04-22 07:08 | 35.06447 | 12.73965 | 33952 ft | 442 kts | 271° |
| 2026-04-22 07:09 | 35.06383 | 12.66452 | 33960 ft | 442 kts | 271° |
| 2026-04-22 07:09 | 35.06314 | 12.58939 | 33957 ft | 443 kts | 271° |
| 2026-04-22 07:10 | 35.06241 | 12.51409 | 33953 ft | 443 kts | 271° |
| 2026-04-22 07:10 | 35.06163 | 12.43875 | 33963 ft | 443 kts | 271° |
| 2026-04-22 07:11 | 35.06081 | 12.36391 | 33956 ft | 444 kts | 271° |
| 2026-04-22 07:11 | 35.05993 | 12.28860 | 33953 ft | 444 kts | 271° |
| 2026-04-22 07:12 | 35.05901 | 12.21314 | 33957 ft | 444 kts | 271° |
| 2026-04-22 07:12 | 35.05804 | 12.13773 | 33954 ft | 444 kts | 271° |
| 2026-04-22 07:13 | 35.05703 | 12.06230 | 33958 ft | 444 kts | 270° |
| 2026-04-22 07:13 | 35.05597 | 11.98734 | 33951 ft | 444 kts | 270° |
| 2026-04-22 07:14 | 35.05486 | 11.91190 | 33962 ft | 445 kts | 270° |
| 2026-04-22 07:14 | 35.05371 | 11.83637 | 33954 ft | 445 kts | 270° |
| 2026-04-22 07:15 | 35.05250 | 11.76077 | 33961 ft | 445 kts | 270° |
| 2026-04-22 07:15 | 35.05126 | 11.68524 | 33963 ft | 445 kts | 270° |
| 2026-04-22 07:16 | 35.04997 | 11.60971 | 33960 ft | 445 kts | 270° |
| 2026-04-22 07:16 | 35.04691 | 11.53468 | 33950 ft | 447 kts | 263° |
| 2026-04-22 07:17 | 35.03150 | 11.46100 | 33951 ft | 450 kts | 253° |
| 2026-04-22 07:17 | 35.00551 | 11.39116 | 33965 ft | 453 kts | 247° |
| 2026-04-22 07:18 | 34.97745 | 11.32231 | 33969 ft | 453 kts | 247° |
| 2026-04-22 07:18 | 34.94970 | 11.25333 | 33956 ft | 453 kts | 247° |
| 2026-04-22 07:19 | 34.92216 | 11.18438 | 33956 ft | 453 kts | 247° |
| 2026-04-22 07:19 | 34.89455 | 11.11537 | 33956 ft | 453 kts | 247° |
| 2026-04-22 07:20 | 34.86622 | 11.04651 | 34145 ft | 456 kts | 246° |
| 2026-04-22 07:20 | 34.85179 | 11.01220 | 34486 ft | 453 kts | 246° |
| 2026-04-22 07:20 | 34.83747 | 10.97821 | 34868 ft | 450 kts | 246° |
| 2026-04-22 07:20 | 34.82324 | 10.94435 | 35229 ft | 448 kts | 246° |
| 2026-04-22 07:21 | 34.80912 | 10.91071 | 35562 ft | 446 kts | 246° |
| 2026-04-22 07:21 | 34.79504 | 10.87714 | 35829 ft | 445 kts | 246° |
| 2026-04-22 07:21 | 34.78111 | 10.84390 | 35888 ft | 448 kts | 246° |
| 2026-04-22 07:22 | 34.75281 | 10.77647 | 35930 ft | 447 kts | 246° |
| 2026-04-22 07:22 | 34.72455 | 10.70932 | 35941 ft | 446 kts | 245° |
| 2026-04-22 07:23 | 34.69679 | 10.64205 | 35940 ft | 444 kts | 247° |
| 2026-04-22 07:23 | 34.66992 | 10.57436 | 35940 ft | 444 kts | 247° |
| 2026-04-22 07:24 | 34.64308 | 10.50679 | 35949 ft | 444 kts | 247° |
| 2026-04-22 07:24 | 34.61606 | 10.43925 | 35947 ft | 445 kts | 246° |
| 2026-04-22 07:25 | 34.58891 | 10.37168 | 35951 ft | 446 kts | 246° |
| 2026-04-22 07:25 | 34.56166 | 10.30404 | 35959 ft | 446 kts | 246° |
| 2026-04-22 07:26 | 34.53436 | 10.23639 | 35966 ft | 447 kts | 246° |
| 2026-04-22 07:26 | 34.50698 | 10.16867 | 35944 ft | 447 kts | 246° |
| 2026-04-22 07:27 | 34.47952 | 10.10088 | 35941 ft | 448 kts | 246° |
| 2026-04-22 07:27 | 34.45204 | 10.03316 | 35961 ft | 448 kts | 246° |
| 2026-04-22 07:28 | 34.41093 | 9.93164 | 35961 ft | 447 kts | 248° |
| 2026-04-22 07:28 | 34.39003 | 9.86109 | 35966 ft | 444 kts | 255° |
| 2026-04-22 07:29 | 34.37165 | 9.78962 | 35962 ft | 444 kts | 254° |
| 2026-04-22 07:29 | 34.35302 | 9.71831 | 35958 ft | 444 kts | 254° |
| 2026-04-22 07:30 | 34.33424 | 9.64708 | 35955 ft | 444 kts | 254° |
| 2026-04-22 07:30 | 34.31555 | 9.57646 | 35961 ft | 444 kts | 254° |
| 2026-04-22 07:31 | 34.29669 | 9.50533 | 35962 ft | 444 kts | 254° |
| 2026-04-22 07:31 | 34.27778 | 9.43422 | 35967 ft | 444 kts | 254° |
| 2026-04-22 07:32 | 34.25886 | 9.36320 | 35960 ft | 444 kts | 254° |
| 2026-04-22 07:32 | 34.23989 | 9.29220 | 35961 ft | 444 kts | 254° |
| 2026-04-22 07:33 | 34.22089 | 9.22126 | 35968 ft | 443 kts | 254° |
| 2026-04-22 07:33 | 34.20252 | 9.15007 | 35969 ft | 443 kts | 255° |
| 2026-04-22 07:34 | 34.18523 | 9.07862 | 35973 ft | 443 kts | 255° |
| 2026-04-22 07:34 | 34.16793 | 9.00722 | 35969 ft | 443 kts | 255° |
| 2026-04-22 07:35 | 34.15046 | 8.93598 | 35973 ft | 443 kts | 255° |
| 2026-04-22 07:35 | 34.13299 | 8.86522 | 35967 ft | 442 kts | 255° |
| 2026-04-22 07:36 | 34.11535 | 8.79401 | 35972 ft | 442 kts | 255° |
| 2026-04-22 07:36 | 34.09766 | 8.72277 | 35970 ft | 443 kts | 255° |
| 2026-04-22 07:37 | 34.07993 | 8.65155 | 35961 ft | 443 kts | 255° |
| 2026-04-22 07:37 | 34.06218 | 8.58048 | 35958 ft | 443 kts | 255° |
| 2026-04-22 07:38 | 34.04439 | 8.50938 | 35962 ft | 442 kts | 255° |
| 2026-04-22 07:38 | 34.02669 | 8.43885 | 35959 ft | 442 kts | 255° |
| 2026-04-22 07:39 | 34.00883 | 8.36789 | 35952 ft | 442 kts | 255° |
| 2026-04-22 07:39 | 33.99093 | 8.29696 | 35947 ft | 442 kts | 254° |
| 2026-04-22 07:40 | 33.97300 | 8.22607 | 35941 ft | 442 kts | 254° |
| 2026-04-22 07:40 | 33.95513 | 8.15560 | 35942 ft | 442 kts | 254° |
| 2026-04-22 07:41 | 33.93660 | 8.08502 | 35928 ft | 442 kts | 251° |
| 2026-04-22 07:41 | 33.91487 | 8.01577 | 35939 ft | 442 kts | 250° |
| 2026-04-22 07:42 | 33.89285 | 7.94666 | 35939 ft | 442 kts | 250° |
| 2026-04-22 07:42 | 33.87093 | 7.87748 | 35948 ft | 442 kts | 250° |
| 2026-04-22 07:43 | 33.84905 | 7.80828 | 35948 ft | 443 kts | 250° |
| 2026-04-22 07:43 | 33.83082 | 7.75071 | 35954 ft | 443 kts | 250° |
| 2026-04-22 07:44 | 33.80888 | 7.68158 | 35960 ft | 443 kts | 250° |
| 2026-04-22 07:44 | 33.78689 | 7.61241 | 35957 ft | 443 kts | 250° |
| 2026-04-22 07:45 | 33.76484 | 7.54330 | 35959 ft | 443 kts | 250° |
| 2026-04-22 07:45 | 33.74223 | 7.47454 | 35960 ft | 443 kts | 249° |
| 2026-04-22 07:46 | 33.71934 | 7.40586 | 35949 ft | 442 kts | 249° |
| 2026-04-22 07:46 | 33.69660 | 7.33759 | 35960 ft | 442 kts | 249° |
| 2026-04-22 07:47 | 33.67371 | 7.26883 | 35959 ft | 443 kts | 249° |
| 2026-04-22 07:47 | 33.65083 | 7.20021 | 35959 ft | 443 kts | 249° |
| 2026-04-22 07:48 | 33.62789 | 7.13154 | 35957 ft | 443 kts | 249° |
| 2026-04-22 07:48 | 33.60507 | 7.06339 | 35951 ft | 443 kts | 249° |
| 2026-04-22 07:49 | 33.58206 | 6.99482 | 35946 ft | 443 kts | 249° |
| 2026-04-22 07:49 | 33.55902 | 6.92631 | 35943 ft | 443 kts | 249° |
| 2026-04-22 07:50 | 33.53591 | 6.85772 | 35939 ft | 443 kts | 249° |
| 2026-04-22 07:50 | 33.51074 | 6.79026 | 35928 ft | 444 kts | 242° |
| 2026-04-22 07:51 | 33.47667 | 6.72849 | 35938 ft | 445 kts | 234° |
| 2026-04-22 07:51 | 33.43829 | 6.67012 | 35943 ft | 446 kts | 234° |
| 2026-04-22 07:52 | 33.39991 | 6.61167 | 35947 ft | 447 kts | 234° |
| 2026-04-22 07:52 | 33.36187 | 6.55347 | 35958 ft | 447 kts | 234° |
| 2026-04-22 07:53 | 33.32358 | 6.49482 | 35964 ft | 447 kts | 234° |
| 2026-04-22 07:53 | 33.28526 | 6.43620 | 35966 ft | 447 kts | 234° |
| 2026-04-22 07:54 | 33.24691 | 6.37764 | 35962 ft | 447 kts | 234° |
| 2026-04-22 07:54 | 33.20852 | 6.31912 | 35966 ft | 447 kts | 233° |
| 2026-04-22 07:55 | 33.17017 | 6.26074 | 35965 ft | 447 kts | 233° |
| 2026-04-22 07:55 | 33.13179 | 6.20240 | 35969 ft | 447 kts | 233° |
| 2026-04-22 07:56 | 33.09332 | 6.14403 | 35966 ft | 446 kts | 233° |
| 2026-04-22 07:56 | 33.07632 | 6.11346 | 35958 ft | 442 kts | 245° |
| 2026-04-22 07:56 | 33.06560 | 6.07930 | 35983 ft | 441 kts | 255° |
| 2026-04-22 07:57 | 33.05946 | 6.00691 | 35972 ft | 441 kts | 272° |
| 2026-04-22 07:57 | 33.06358 | 5.93428 | 35970 ft | 443 kts | 272° |
| 2026-04-22 07:58 | 33.06763 | 5.86075 | 35971 ft | 446 kts | 272° |
| 2026-04-22 07:58 | 33.07128 | 5.78682 | 35967 ft | 447 kts | 272° |
| 2026-04-22 07:59 | 33.07471 | 5.71278 | 35964 ft | 448 kts | 272° |
| 2026-04-22 07:59 | 33.07806 | 5.63861 | 35963 ft | 448 kts | 272° |
| 2026-04-22 08:00 | 33.08136 | 5.56452 | 35967 ft | 447 kts | 271° |
| 2026-04-22 08:00 | 33.08463 | 5.49050 | 35965 ft | 447 kts | 271° |
| 2026-04-22 08:01 | 33.08785 | 5.41654 | 35968 ft | 446 kts | 271° |
| 2026-04-22 08:01 | 33.09102 | 5.34268 | 35965 ft | 446 kts | 271° |
| 2026-04-22 08:02 | 33.09415 | 5.26889 | 35967 ft | 446 kts | 271° |
| 2026-04-22 08:02 | 33.09723 | 5.19510 | 35969 ft | 446 kts | 271° |
| 2026-04-22 08:03 | 33.10027 | 5.12127 | 35968 ft | 446 kts | 271° |
| 2026-04-22 08:03 | 33.10327 | 5.04739 | 35968 ft | 446 kts | 271° |
| 2026-04-22 08:04 | 33.10623 | 4.97335 | 35971 ft | 446 kts | 271° |
| 2026-04-22 08:04 | 33.10915 | 4.89931 | 35978 ft | 447 kts | 271° |
| 2026-04-22 08:05 | 33.11203 | 4.82513 | 35980 ft | 448 kts | 271° |
| 2026-04-22 08:05 | 33.11485 | 4.75124 | 35973 ft | 448 kts | 271° |
| 2026-04-22 08:06 | 33.11765 | 4.67686 | 35982 ft | 449 kts | 271° |
| 2026-04-22 08:06 | 33.12041 | 4.60245 | 35979 ft | 449 kts | 271° |
| 2026-04-22 08:07 | 33.12313 | 4.52795 | 35985 ft | 449 kts | 271° |
| 2026-04-22 08:07 | 33.12535 | 4.45346 | 35969 ft | 446 kts | 265° |
| 2026-04-22 08:08 | 33.11935 | 4.41727 | 35990 ft | 445 kts | 249° |
| 2026-04-22 08:08 | 33.10523 | 4.38443 | 36007 ft | 446 kts | 237° |
| 2026-04-22 08:08 | 33.08587 | 4.35532 | 35982 ft | 450 kts | 226° |
| 2026-04-22 08:08 | 33.06127 | 4.33236 | 36011 ft | 449 kts | 217° |
| 2026-04-22 08:09 | 33.00934 | 4.29018 | 35996 ft | 453 kts | 217° |
| 2026-04-22 08:09 | 32.95758 | 4.24771 | 35993 ft | 456 kts | 217° |
| 2026-04-22 08:10 | 32.90550 | 4.20432 | 35987 ft | 457 kts | 217° |
| 2026-04-22 08:10 | 32.85348 | 4.16076 | 35987 ft | 457 kts | 217° |
| 2026-04-22 08:11 | 32.80144 | 4.11723 | 35987 ft | 456 kts | 217° |
| 2026-04-22 08:11 | 32.74958 | 4.07394 | 35990 ft | 455 kts | 217° |
| 2026-04-22 08:12 | 32.69787 | 4.03086 | 35991 ft | 453 kts | 217° |
| 2026-04-22 08:12 | 32.64652 | 3.98812 | 35995 ft | 453 kts | 217° |
| 2026-04-22 08:13 | 32.59498 | 3.94529 | 36002 ft | 452 kts | 217° |
| 2026-04-22 08:13 | 32.54347 | 3.90254 | 36003 ft | 451 kts | 217° |
| 2026-04-22 08:14 | 32.49194 | 3.85983 | 36018 ft | 451 kts | 217° |
| 2026-04-22 08:14 | 32.44045 | 3.81721 | 36020 ft | 451 kts | 217° |
| 2026-04-22 08:15 | 32.41633 | 3.79379 | 36009 ft | 448 kts | 228° |
| 2026-04-22 08:15 | 32.39690 | 3.76511 | 36029 ft | 446 kts | 237° |
| 2026-04-22 08:15 | 32.37071 | 3.69884 | 36003 ft | 445 kts | 252° |
| 2026-04-22 08:16 | 32.35290 | 3.62890 | 35997 ft | 448 kts | 253° |
| 2026-04-22 08:16 | 32.33479 | 3.55805 | 35996 ft | 450 kts | 252° |
| 2026-04-22 08:17 | 32.31625 | 3.48717 | 35997 ft | 452 kts | 252° |
| 2026-04-22 08:17 | 32.29746 | 3.41625 | 35986 ft | 452 kts | 252° |
| 2026-04-22 08:18 | 32.27859 | 3.34538 | 35988 ft | 452 kts | 252° |
| 2026-04-22 08:18 | 32.25969 | 3.27453 | 35993 ft | 451 kts | 252° |
| 2026-04-22 08:19 | 32.24093 | 3.20436 | 35998 ft | 450 kts | 252° |
| 2026-04-22 08:19 | 32.22204 | 3.13389 | 35995 ft | 450 kts | 252° |
| 2026-04-22 08:20 | 32.20312 | 3.06345 | 35996 ft | 449 kts | 252° |
| 2026-04-22 08:20 | 32.18418 | 2.99313 | 36003 ft | 450 kts | 252° |
| 2026-04-22 08:21 | 32.16518 | 2.92275 | 35997 ft | 450 kts | 252° |
| 2026-04-22 08:21 | 32.14612 | 2.85235 | 35998 ft | 450 kts | 251° |
| 2026-04-22 08:22 | 32.12702 | 2.78197 | 36001 ft | 451 kts | 251° |
| 2026-04-22 08:22 | 32.10788 | 2.71157 | 36002 ft | 451 kts | 251° |
| 2026-04-22 08:23 | 32.08867 | 2.64111 | 36004 ft | 452 kts | 251° |
| 2026-04-22 08:23 | 32.06939 | 2.57059 | 36004 ft | 452 kts | 251° |
| 2026-04-22 08:24 | 32.05014 | 2.50035 | 36003 ft | 453 kts | 251° |
| 2026-04-22 08:24 | 32.03070 | 2.42956 | 36003 ft | 454 kts | 251° |
| 2026-04-22 08:25 | 32.01122 | 2.35879 | 36000 ft | 454 kts | 251° |
| 2026-04-22 08:25 | 31.99169 | 2.28804 | 36007 ft | 454 kts | 251° |
| 2026-04-22 08:26 | 31.97211 | 2.21729 | 36000 ft | 455 kts | 251° |
| 2026-04-22 08:26 | 31.95247 | 2.14649 | 36000 ft | 455 kts | 251° |
| 2026-04-22 08:27 | 31.93281 | 2.07574 | 36001 ft | 455 kts | 251° |
| 2026-04-22 08:27 | 31.91309 | 2.00496 | 35999 ft | 455 kts | 251° |
| 2026-04-22 08:28 | 31.89667 | 1.94620 | 36005 ft | 455 kts | 251° |
| 2026-04-22 08:28 | 31.87689 | 1.87555 | 36008 ft | 455 kts | 251° |
| 2026-04-22 08:29 | 31.85384 | 1.79340 | 36005 ft | 455 kts | 251° |
| 2026-04-22 08:29 | 31.83718 | 1.73419 | 36003 ft | 455 kts | 251° |
| 2026-04-22 08:30 | 31.81740 | 1.66399 | 36009 ft | 455 kts | 251° |
| 2026-04-22 08:30 | 31.79748 | 1.59349 | 36009 ft | 455 kts | 251° |
| 2026-04-22 08:31 | 31.77750 | 1.52292 | 36005 ft | 454 kts | 251° |
| 2026-04-22 08:32 | 31.74900 | 1.41663 | 36005 ft | 455 kts | 253° |
| 2026-04-22 08:32 | 31.73101 | 1.34539 | 36003 ft | 455 kts | 253° |
| 2026-04-22 08:33 | 31.71286 | 1.27418 | 36002 ft | 455 kts | 253° |
| 2026-04-22 08:33 | 31.69454 | 1.20304 | 36004 ft | 455 kts | 253° |
| 2026-04-22 08:34 | 31.67607 | 1.13176 | 36007 ft | 456 kts | 253° |
| 2026-04-22 08:34 | 31.65769 | 1.06106 | 36005 ft | 456 kts | 253° |
| 2026-04-22 08:35 | 31.63911 | 0.98973 | 36007 ft | 457 kts | 253° |
| 2026-04-22 08:35 | 31.62049 | 0.91838 | 36006 ft | 457 kts | 253° |
| 2026-04-22 08:36 | 31.60181 | 0.84702 | 36004 ft | 458 kts | 253° |
| 2026-04-22 08:36 | 31.58309 | 0.77565 | 36007 ft | 458 kts | 253° |
| 2026-04-22 08:37 | 31.56431 | 0.70426 | 36002 ft | 458 kts | 253° |
| 2026-04-22 08:37 | 31.54546 | 0.63280 | 36008 ft | 458 kts | 253° |
| 2026-04-22 08:38 | 31.52661 | 0.56148 | 36008 ft | 458 kts | 253° |
| 2026-04-22 08:38 | 31.50771 | 0.49018 | 36002 ft | 458 kts | 253° |
| 2026-04-22 08:39 | 31.48878 | 0.41892 | 36009 ft | 458 kts | 253° |
| 2026-04-22 08:39 | 31.46982 | 0.34776 | 36015 ft | 457 kts | 253° |
| 2026-04-22 08:40 | 31.45096 | 0.27710 | 36010 ft | 457 kts | 253° |
| 2026-04-22 08:40 | 31.43195 | 0.20608 | 36014 ft | 457 kts | 253° |
| 2026-04-22 08:41 | 31.41289 | 0.13505 | 36020 ft | 457 kts | 253° |
| 2026-04-22 08:41 | 31.39384 | 0.06425 | 36013 ft | 456 kts | 253° |
| 2026-04-22 08:42 | 31.37474 | -0.00661 | 36020 ft | 456 kts | 253° |
| 2026-04-22 08:42 | 31.35560 | -0.07740 | 36020 ft | 456 kts | 253° |
| 2026-04-22 08:43 | 31.33641 | -0.14824 | 36019 ft | 456 kts | 253° |
| 2026-04-22 08:43 | 31.31717 | -0.21908 | 36019 ft | 457 kts | 253° |
| 2026-04-22 08:44 | 31.29789 | -0.28988 | 36015 ft | 457 kts | 253° |
| 2026-04-22 08:44 | 31.27857 | -0.36066 | 36019 ft | 457 kts | 253° |
| 2026-04-22 08:45 | 31.25921 | -0.43141 | 36019 ft | 457 kts | 253° |
| 2026-04-22 08:45 | 31.23983 | -0.50209 | 36008 ft | 457 kts | 253° |
| 2026-04-22 08:46 | 31.22040 | -0.57275 | 36018 ft | 456 kts | 253° |
| 2026-04-22 08:46 | 31.20098 | -0.64323 | 36021 ft | 455 kts | 253° |
| 2026-04-22 08:47 | 31.18167 | -0.71314 | 36019 ft | 455 kts | 253° |
| 2026-04-22 08:47 | 31.16222 | -0.78337 | 36015 ft | 454 kts | 253° |
| 2026-04-22 08:48 | 31.14275 | -0.85352 | 36017 ft | 454 kts | 253° |
| 2026-04-22 08:48 | 31.12322 | -0.92375 | 36026 ft | 455 kts | 253° |
| 2026-04-22 08:49 | 31.10364 | -0.99394 | 36025 ft | 455 kts | 253° |
| 2026-04-22 08:49 | 31.08398 | -1.06429 | 36026 ft | 456 kts | 253° |
| 2026-04-22 08:50 | 31.06427 | -1.13464 | 36024 ft | 456 kts | 253° |
| 2026-04-22 08:50 | 31.04451 | -1.20504 | 36018 ft | 457 kts | 253° |
| 2026-04-22 08:51 | 31.02466 | -1.27561 | 36023 ft | 459 kts | 253° |
| 2026-04-22 08:51 | 31.00045 | -1.34437 | 36016 ft | 462 kts | 239° |
| 2026-04-22 08:52 | 30.95886 | -1.40182 | 36015 ft | 468 kts | 222° |
| 2026-04-22 08:52 | 30.90714 | -1.44815 | 36019 ft | 469 kts | 219° |
| 2026-04-22 08:53 | 30.85488 | -1.49387 | 36017 ft | 471 kts | 220° |
| 2026-04-22 08:53 | 30.80303 | -1.53984 | 36007 ft | 472 kts | 220° |
| 2026-04-22 08:54 | 30.75087 | -1.58650 | 36015 ft | 474 kts | 220° |
| 2026-04-22 08:54 | 30.69857 | -1.63332 | 36012 ft | 475 kts | 220° |
| 2026-04-22 08:55 | 30.64606 | -1.68026 | 36003 ft | 477 kts | 220° |
| 2026-04-22 08:55 | 30.59344 | -1.72719 | 36003 ft | 477 kts | 220° |
| 2026-04-22 08:56 | 30.54074 | -1.77413 | 36000 ft | 477 kts | 220° |
| 2026-04-22 08:56 | 30.48810 | -1.82094 | 36001 ft | 476 kts | 220° |
| 2026-04-22 08:57 | 30.43553 | -1.86764 | 35997 ft | 476 kts | 220° |
| 2026-04-22 08:57 | 30.38301 | -1.91422 | 35972 ft | 475 kts | 220° |
| 2026-04-22 08:58 | 30.33044 | -1.96079 | 35985 ft | 476 kts | 220° |
| 2026-04-22 08:58 | 30.27800 | -2.00718 | 35998 ft | 478 kts | 220° |
| 2026-04-22 08:59 | 30.22505 | -2.05396 | 35994 ft | 480 kts | 220° |
| 2026-04-22 08:59 | 30.17190 | -2.10085 | 35989 ft | 481 kts | 220° |
| 2026-04-22 09:00 | 30.11862 | -2.14777 | 35985 ft | 481 kts | 220° |
| 2026-04-22 09:00 | 30.06533 | -2.19467 | 35986 ft | 481 kts | 220° |
| 2026-04-22 09:01 | 30.01313 | -2.24255 | 35984 ft | 477 kts | 226° |
| 2026-04-22 09:01 | 29.96668 | -2.29609 | 35974 ft | 474 kts | 229° |
| 2026-04-22 09:02 | 29.92024 | -2.35042 | 35988 ft | 477 kts | 229° |
| 2026-04-22 09:02 | 29.87331 | -2.40485 | 35992 ft | 480 kts | 228° |
| 2026-04-22 09:03 | 29.82588 | -2.45946 | 35993 ft | 483 kts | 228° |
| 2026-04-22 09:03 | 29.77819 | -2.51421 | 35996 ft | 484 kts | 228° |
| 2026-04-22 09:04 | 29.73057 | -2.56881 | 35976 ft | 482 kts | 228° |
| 2026-04-22 09:04 | 29.68319 | -2.62307 | 35974 ft | 479 kts | 228° |
| 2026-04-22 09:05 | 29.63602 | -2.67705 | 35961 ft | 477 kts | 229° |
| 2026-04-22 09:05 | 29.58888 | -2.73092 | 35993 ft | 479 kts | 229° |
| 2026-04-22 09:06 | 29.54151 | -2.78499 | 35990 ft | 481 kts | 229° |
| 2026-04-22 09:06 | 29.49413 | -2.83899 | 35991 ft | 484 kts | 229° |
| 2026-04-22 09:07 | 29.44629 | -2.89341 | 35981 ft | 484 kts | 229° |
| 2026-04-22 09:07 | 29.39845 | -2.94776 | 35984 ft | 484 kts | 229° |
| 2026-04-22 09:08 | 29.35066 | -3.00198 | 35978 ft | 483 kts | 229° |
| 2026-04-22 09:08 | 29.30290 | -3.05611 | 35947 ft | 481 kts | 229° |
| 2026-04-22 09:09 | 29.25530 | -3.10999 | 35966 ft | 481 kts | 229° |
| 2026-04-22 09:09 | 29.20785 | -3.16397 | 35954 ft | 481 kts | 230° |
| 2026-04-22 09:10 | 29.16066 | -3.21799 | 35976 ft | 479 kts | 230° |
| 2026-04-22 09:10 | 29.11383 | -3.27155 | 35968 ft | 479 kts | 230° |
| 2026-04-22 09:11 | 29.06643 | -3.32564 | 35973 ft | 478 kts | 230° |
| 2026-04-22 09:11 | 29.01967 | -3.37888 | 35974 ft | 477 kts | 230° |
| 2026-04-22 09:12 | 28.97262 | -3.43238 | 35974 ft | 477 kts | 230° |
| 2026-04-22 09:12 | 28.92554 | -3.48583 | 35969 ft | 476 kts | 230° |
| 2026-04-22 09:13 | 28.87861 | -3.53906 | 35965 ft | 475 kts | 230° |
| 2026-04-22 09:13 | 28.83967 | -3.58317 | 35968 ft | 474 kts | 230° |
| 2026-04-22 09:14 | 28.79289 | -3.63609 | 35971 ft | 473 kts | 230° |
| 2026-04-22 09:14 | 28.74608 | -3.68898 | 35967 ft | 473 kts | 230° |
| 2026-04-22 09:15 | 28.69936 | -3.74170 | 35967 ft | 473 kts | 230° |
| 2026-04-22 09:15 | 28.65291 | -3.79405 | 35965 ft | 473 kts | 230° |
| 2026-04-22 09:16 | 28.60611 | -3.84670 | 35953 ft | 472 kts | 230° |
| 2026-04-22 09:16 | 28.55949 | -3.89908 | 35958 ft | 470 kts | 231° |
| 2026-04-22 09:17 | 28.51301 | -3.95125 | 35964 ft | 469 kts | 230° |
| 2026-04-22 09:17 | 28.46651 | -4.00338 | 35961 ft | 468 kts | 231° |
| 2026-04-22 09:18 | 28.42017 | -4.05526 | 35962 ft | 468 kts | 230° |
| 2026-04-22 09:18 | 28.37409 | -4.10679 | 35962 ft | 468 kts | 230° |
| 2026-04-22 09:19 | 28.32766 | -4.15863 | 35956 ft | 468 kts | 230° |
| 2026-04-22 09:19 | 28.28123 | -4.21041 | 35947 ft | 468 kts | 231° |
| 2026-04-22 09:20 | 28.23478 | -4.26212 | 35955 ft | 467 kts | 231° |
| 2026-04-22 09:20 | 28.18836 | -4.31377 | 35945 ft | 467 kts | 231° |
| 2026-04-22 09:21 | 28.14187 | -4.36542 | 35955 ft | 467 kts | 231° |
| 2026-04-22 09:21 | 28.09543 | -4.41695 | 35946 ft | 467 kts | 231° |
| 2026-04-22 09:22 | 28.04896 | -4.46845 | 35947 ft | 467 kts | 231° |
| 2026-04-22 09:22 | 28.00266 | -4.52000 | 35954 ft | 467 kts | 231° |
| 2026-04-22 09:23 | 27.95689 | -4.57215 | 35939 ft | 466 kts | 232° |
| 2026-04-22 09:23 | 27.91166 | -4.62387 | 35941 ft | 464 kts | 232° |
| 2026-04-22 09:24 | 27.86621 | -4.67567 | 35943 ft | 463 kts | 232° |
| 2026-04-22 09:24 | 27.82080 | -4.72725 | 35946 ft | 462 kts | 232° |
| 2026-04-22 09:25 | 27.77541 | -4.77872 | 35942 ft | 462 kts | 232° |
| 2026-04-22 09:25 | 27.73029 | -4.82982 | 35942 ft | 462 kts | 232° |
| 2026-04-22 09:26 | 27.68490 | -4.88117 | 35944 ft | 462 kts | 232° |
| 2026-04-22 09:26 | 27.63946 | -4.93250 | 35945 ft | 462 kts | 232° |
| 2026-04-22 09:27 | 27.59399 | -4.98381 | 35931 ft | 462 kts | 232° |
| 2026-04-22 09:27 | 27.54854 | -5.03502 | 35946 ft | 461 kts | 232° |
| 2026-04-22 09:28 | 27.50314 | -5.08611 | 35939 ft | 461 kts | 232° |
| 2026-04-22 09:28 | 27.45774 | -5.13714 | 35944 ft | 461 kts | 232° |
| 2026-04-22 09:29 | 27.41241 | -5.18804 | 35941 ft | 460 kts | 232° |
| 2026-04-22 09:29 | 27.36731 | -5.23862 | 35924 ft | 460 kts | 232° |
| 2026-04-22 09:30 | 27.32195 | -5.28942 | 35941 ft | 460 kts | 232° |
| 2026-04-22 09:30 | 27.27665 | -5.34009 | 35924 ft | 459 kts | 232° |
| 2026-04-22 09:31 | 27.23146 | -5.39057 | 35925 ft | 458 kts | 232° |
| 2026-04-22 09:31 | 27.18626 | -5.44101 | 35922 ft | 457 kts | 232° |
| 2026-04-22 09:32 | 27.14115 | -5.49129 | 35921 ft | 457 kts | 232° |
| 2026-04-22 09:32 | 27.09600 | -5.54157 | 35926 ft | 456 kts | 232° |
| 2026-04-22 09:33 | 27.05085 | -5.59176 | 35922 ft | 456 kts | 232° |
| 2026-04-22 09:33 | 27.00600 | -5.64157 | 35933 ft | 456 kts | 232° |
| 2026-04-22 09:34 | 26.96096 | -5.69152 | 35939 ft | 455 kts | 232° |
| 2026-04-22 09:34 | 26.91592 | -5.74142 | 35927 ft | 455 kts | 233° |
| 2026-04-22 09:35 | 26.84841 | -5.81611 | 35935 ft | 454 kts | 233° |
| 2026-04-22 09:35 | 26.80339 | -5.86583 | 35937 ft | 454 kts | 233° |
| 2026-04-22 09:36 | 26.75836 | -5.91552 | 35935 ft | 454 kts | 233° |
| 2026-04-22 09:36 | 26.71330 | -5.96518 | 35927 ft | 453 kts | 233° |
| 2026-04-22 09:37 | 26.66836 | -6.01465 | 35932 ft | 453 kts | 233° |
| 2026-04-22 09:37 | 26.62348 | -6.06400 | 35937 ft | 453 kts | 233° |
| 2026-04-22 09:38 | 26.57884 | -6.11301 | 35925 ft | 452 kts | 233° |
| 2026-04-22 09:38 | 26.53393 | -6.16226 | 35932 ft | 451 kts | 233° |
| 2026-04-22 09:39 | 26.48916 | -6.21132 | 35925 ft | 451 kts | 233° |
| 2026-04-22 09:39 | 26.44443 | -6.26027 | 35932 ft | 450 kts | 233° |
| 2026-04-22 09:40 | 26.39975 | -6.30911 | 35939 ft | 449 kts | 234° |
| 2026-04-22 09:40 | 26.35515 | -6.35783 | 35943 ft | 448 kts | 234° |
| 2026-04-22 09:41 | 26.31055 | -6.40648 | 35922 ft | 448 kts | 234° |
| 2026-04-22 09:41 | 26.26632 | -6.45467 | 35942 ft | 447 kts | 234° |
| 2026-04-22 09:42 | 26.22182 | -6.50309 | 35934 ft | 446 kts | 234° |
| 2026-04-22 09:42 | 26.17743 | -6.55136 | 35939 ft | 446 kts | 234° |
| 2026-04-22 09:43 | 26.13303 | -6.59959 | 35938 ft | 446 kts | 234° |
| 2026-04-22 09:43 | 26.09032 | -6.64902 | 35913 ft | 440 kts | 238° |
| 2026-04-22 09:44 | 26.04937 | -6.69945 | 35941 ft | 439 kts | 238° |
| 2026-04-22 09:44 | 26.00849 | -6.74984 | 35937 ft | 439 kts | 238° |
| 2026-04-22 09:45 | 25.96768 | -6.79989 | 35945 ft | 439 kts | 238° |
| 2026-04-22 09:45 | 25.92653 | -6.85019 | 35931 ft | 440 kts | 238° |
| 2026-04-22 09:46 | 25.88539 | -6.90039 | 35938 ft | 439 kts | 238° |
| 2026-04-22 09:46 | 25.84429 | -6.95050 | 35943 ft | 438 kts | 238° |
| 2026-04-22 09:47 | 25.80321 | -7.00055 | 35945 ft | 438 kts | 238° |
| 2026-04-22 09:47 | 25.76212 | -7.05053 | 35938 ft | 437 kts | 239° |
| 2026-04-22 09:48 | 25.72116 | -7.10032 | 35940 ft | 436 kts | 239° |
| 2026-04-22 09:48 | 25.68052 | -7.14967 | 35947 ft | 436 kts | 239° |
| 2026-04-22 09:49 | 25.63965 | -7.19925 | 35948 ft | 435 kts | 239° |
| 2026-04-22 09:49 | 25.59880 | -7.24875 | 35942 ft | 435 kts | 239° |
| 2026-04-22 09:50 | 25.55800 | -7.29812 | 35946 ft | 434 kts | 239° |
| 2026-04-22 09:50 | 25.51724 | -7.34739 | 35945 ft | 433 kts | 239° |
| 2026-04-22 09:51 | 25.47655 | -7.39654 | 35947 ft | 433 kts | 239° |
| 2026-04-22 09:51 | 25.43582 | -7.44571 | 35953 ft | 432 kts | 239° |
| 2026-04-22 09:52 | 25.39519 | -7.49471 | 35949 ft | 432 kts | 239° |
| 2026-04-22 09:52 | 25.35459 | -7.54362 | 35952 ft | 431 kts | 239° |
| 2026-04-22 09:53 | 25.31425 | -7.59218 | 35951 ft | 431 kts | 239° |
| 2026-04-22 09:53 | 25.27375 | -7.64086 | 35942 ft | 430 kts | 239° |
| 2026-04-22 09:54 | 25.23327 | -7.68948 | 35949 ft | 429 kts | 239° |
| 2026-04-22 09:54 | 25.19281 | -7.73804 | 35950 ft | 429 kts | 239° |
| 2026-04-22 09:55 | 25.15235 | -7.78651 | 35950 ft | 429 kts | 239° |
| 2026-04-22 09:55 | 25.11191 | -7.83491 | 35932 ft | 429 kts | 239° |
| 2026-04-22 09:56 | 25.07146 | -7.88328 | 35949 ft | 429 kts | 239° |
| 2026-04-22 09:56 | 25.03096 | -7.93168 | 35948 ft | 429 kts | 239° |
| 2026-04-22 09:57 | 24.99068 | -7.97977 | 35949 ft | 430 kts | 239° |
| 2026-04-22 09:57 | 24.95009 | -8.02818 | 35947 ft | 430 kts | 239° |
| 2026-04-22 09:58 | 24.90933 | -8.07673 | 35947 ft | 430 kts | 239° |
| 2026-04-22 09:58 | 24.86867 | -8.12512 | 35944 ft | 430 kts | 239° |
| 2026-04-22 09:59 | 24.82800 | -8.17348 | 35948 ft | 430 kts | 239° |
| 2026-04-22 09:59 | 24.79415 | -8.21368 | 35942 ft | 430 kts | 239° |
| 2026-04-22 10:00 | 24.75344 | -8.26197 | 35946 ft | 430 kts | 238° |
| 2026-04-22 10:00 | 24.71275 | -8.31021 | 35947 ft | 430 kts | 238° |
| 2026-04-22 10:01 | 24.67200 | -8.35848 | 35944 ft | 431 kts | 238° |
| 2026-04-22 10:01 | 24.63118 | -8.40677 | 35943 ft | 431 kts | 238° |
| 2026-04-22 10:02 | 24.59039 | -8.45496 | 35944 ft | 430 kts | 238° |
| 2026-04-22 10:02 | 24.54958 | -8.50313 | 35950 ft | 430 kts | 238° |
| 2026-04-22 10:03 | 24.50902 | -8.55096 | 35946 ft | 430 kts | 238° |
| 2026-04-22 10:03 | 24.46822 | -8.59903 | 35944 ft | 430 kts | 238° |
| 2026-04-22 10:04 | 24.42739 | -8.64709 | 35932 ft | 430 kts | 238° |
| 2026-04-22 10:04 | 24.38662 | -8.69503 | 35942 ft | 430 kts | 238° |
| 2026-04-22 10:05 | 24.34581 | -8.74297 | 35934 ft | 429 kts | 238° |
| 2026-04-22 10:05 | 24.30505 | -8.79081 | 35940 ft | 429 kts | 238° |
| 2026-04-22 10:06 | 24.26424 | -8.83866 | 35940 ft | 429 kts | 238° |
| 2026-04-22 10:06 | 24.22342 | -8.88642 | 35938 ft | 429 kts | 238° |
| 2026-04-22 10:07 | 24.18258 | -8.93413 | 35939 ft | 429 kts | 238° |
| 2026-04-22 10:07 | 24.14167 | -8.98189 | 35943 ft | 429 kts | 238° |
| 2026-04-22 10:08 | 24.10103 | -9.02930 | 35927 ft | 429 kts | 238° |
| 2026-04-22 10:08 | 24.06003 | -9.07709 | 35934 ft | 430 kts | 238° |
| 2026-04-22 10:09 | 24.01901 | -9.12488 | 35947 ft | 431 kts | 237° |
| 2026-04-22 10:09 | 23.97787 | -9.17273 | 35944 ft | 432 kts | 237° |
| 2026-04-22 10:10 | 23.93658 | -9.22071 | 35936 ft | 433 kts | 237° |
| 2026-04-22 10:10 | 23.89556 | -9.26832 | 35935 ft | 433 kts | 237° |
| 2026-04-22 10:11 | 23.85424 | -9.31624 | 35938 ft | 433 kts | 237° |
| 2026-04-22 10:11 | 23.81285 | -9.36418 | 35940 ft | 433 kts | 237° |
| 2026-04-22 10:12 | 23.77153 | -9.41201 | 35915 ft | 433 kts | 237° |
| 2026-04-22 10:12 | 23.73028 | -9.45971 | 35936 ft | 432 kts | 237° |
| 2026-04-22 10:13 | 23.68893 | -9.50748 | 35941 ft | 433 kts | 237° |
| 2026-04-22 10:13 | 23.64755 | -9.55523 | 35943 ft | 433 kts | 237° |
| 2026-04-22 10:14 | 23.60607 | -9.60306 | 35941 ft | 434 kts | 237° |
| 2026-04-22 10:14 | 23.56481 | -9.65058 | 35942 ft | 434 kts | 237° |
| 2026-04-22 10:15 | 23.52328 | -9.69836 | 35945 ft | 434 kts | 237° |
| 2026-04-22 10:15 | 23.48179 | -9.74605 | 35946 ft | 434 kts | 237° |
| 2026-04-22 10:16 | 23.44026 | -9.79374 | 35914 ft | 434 kts | 237° |
| 2026-04-22 10:16 | 23.39873 | -9.84140 | 35928 ft | 434 kts | 236° |
| 2026-04-22 10:17 | 23.35714 | -9.88907 | 35942 ft | 434 kts | 236° |
| 2026-04-22 10:17 | 23.31547 | -9.93679 | 35948 ft | 435 kts | 236° |
| 2026-04-22 10:18 | 23.27373 | -9.98453 | 35953 ft | 436 kts | 236° |
| 2026-04-22 10:18 | 23.23196 | -10.03227 | 35947 ft | 436 kts | 236° |
| 2026-04-22 10:19 | 23.19010 | -10.08006 | 35945 ft | 436 kts | 236° |
| 2026-04-22 10:19 | 23.14821 | -10.12783 | 35943 ft | 436 kts | 236° |
| 2026-04-22 10:20 | 23.10660 | -10.17525 | 35949 ft | 436 kts | 236° |
| 2026-04-22 10:20 | 23.06476 | -10.22288 | 35950 ft | 436 kts | 235° |
| 2026-04-22 10:21 | 23.02290 | -10.27050 | 35946 ft | 436 kts | 235° |
| 2026-04-22 10:21 | 22.98094 | -10.31818 | 35952 ft | 436 kts | 235° |
| 2026-04-22 10:22 | 22.93900 | -10.36580 | 35945 ft | 436 kts | 235° |
| 2026-04-22 10:22 | 22.89705 | -10.41339 | 35941 ft | 436 kts | 235° |
| 2026-04-22 10:23 | 22.85504 | -10.46098 | 35955 ft | 437 kts | 235° |
| 2026-04-22 10:23 | 22.81296 | -10.50860 | 35948 ft | 437 kts | 235° |
| 2026-04-22 10:24 | 22.77096 | -10.55610 | 35949 ft | 436 kts | 235° |
| 2026-04-22 10:24 | 22.72895 | -10.60359 | 35937 ft | 436 kts | 234° |
| 2026-04-22 10:25 | 22.68722 | -10.65072 | 35951 ft | 436 kts | 234° |
| 2026-04-22 10:25 | 22.64525 | -10.69808 | 35950 ft | 436 kts | 234° |
| 2026-04-22 10:26 | 22.60316 | -10.74553 | 35951 ft | 436 kts | 234° |
| 2026-04-22 10:26 | 22.56111 | -10.79288 | 35950 ft | 437 kts | 234° |
| 2026-04-22 10:27 | 22.51902 | -10.84024 | 35949 ft | 437 kts | 234° |
| 2026-04-22 10:27 | 22.47688 | -10.88761 | 35947 ft | 437 kts | 234° |
| 2026-04-22 10:28 | 22.43471 | -10.93497 | 35949 ft | 437 kts | 234° |
| 2026-04-22 10:28 | 22.39256 | -10.98225 | 35932 ft | 436 kts | 234° |
| 2026-04-22 10:29 | 22.35042 | -11.02948 | 35943 ft | 436 kts | 234° |
| 2026-04-22 10:29 | 22.30829 | -11.07667 | 35949 ft | 437 kts | 234° |
| 2026-04-22 10:30 | 22.26611 | -11.12386 | 35950 ft | 437 kts | 234° |
| 2026-04-22 10:30 | 22.22386 | -11.17109 | 35952 ft | 437 kts | 234° |
| 2026-04-22 10:31 | 22.18158 | -11.21831 | 35949 ft | 437 kts | 234° |
| 2026-04-22 10:31 | 22.13956 | -11.26519 | 35953 ft | 438 kts | 234° |
| 2026-04-22 10:32 | 22.09724 | -11.31236 | 35972 ft | 437 kts | 234° |
| 2026-04-22 10:32 | 22.05491 | -11.35950 | 35917 ft | 437 kts | 233° |
| 2026-04-22 10:33 | 22.01264 | -11.40654 | 35934 ft | 437 kts | 233° |
| 2026-04-22 10:33 | 21.97027 | -11.45363 | 35954 ft | 437 kts | 233° |
| 2026-04-22 10:34 | 21.92795 | -11.50065 | 35949 ft | 437 kts | 233° |
| 2026-04-22 10:34 | 21.88555 | -11.54770 | 35943 ft | 437 kts | 233° |
| 2026-04-22 10:35 | 21.84313 | -11.59473 | 35947 ft | 438 kts | 233° |
| 2026-04-22 10:35 | 21.80073 | -11.64170 | 35946 ft | 438 kts | 233° |
| 2026-04-22 10:36 | 21.75829 | -11.68867 | 35944 ft | 438 kts | 233° |
| 2026-04-22 10:36 | 21.71605 | -11.73538 | 35942 ft | 438 kts | 233° |
| 2026-04-22 10:37 | 21.65228 | -11.80582 | 35941 ft | 439 kts | 233° |
| 2026-04-22 10:38 | 21.60963 | -11.85289 | 35942 ft | 440 kts | 233° |
| 2026-04-22 10:38 | 21.56688 | -11.90001 | 35941 ft | 441 kts | 233° |
| 2026-04-22 10:39 | 21.52405 | -11.94726 | 35947 ft | 441 kts | 233° |
| 2026-04-22 10:39 | 21.48120 | -11.99458 | 35941 ft | 442 kts | 233° |
| 2026-04-22 10:40 | 21.43838 | -12.04184 | 35942 ft | 441 kts | 233° |
| 2026-04-22 10:40 | 21.39577 | -12.08882 | 35940 ft | 441 kts | 233° |
| 2026-04-22 10:41 | 21.35295 | -12.13598 | 35933 ft | 441 kts | 232° |
| 2026-04-22 10:41 | 21.31005 | -12.18319 | 35931 ft | 440 kts | 232° |
| 2026-04-22 10:42 | 21.26729 | -12.23021 | 35939 ft | 441 kts | 232° |
| 2026-04-22 10:42 | 21.23171 | -12.26930 | 35938 ft | 441 kts | 232° |
| 2026-04-22 10:43 | 21.18153 | -12.32438 | 35939 ft | 441 kts | 232° |
| 2026-04-22 10:43 | 21.13883 | -12.37121 | 35940 ft | 442 kts | 232° |
| 2026-04-22 10:44 | 21.09582 | -12.41833 | 35948 ft | 442 kts | 232° |
| 2026-04-22 10:44 | 21.05984 | -12.45771 | 35933 ft | 441 kts | 232° |
| 2026-04-22 10:45 | 21.01715 | -12.50441 | 35934 ft | 441 kts | 232° |
| 2026-04-22 10:45 | 20.97426 | -12.55128 | 35933 ft | 440 kts | 232° |
| 2026-04-22 10:46 | 20.93141 | -12.59807 | 35937 ft | 440 kts | 232° |
| 2026-04-22 10:46 | 20.88853 | -12.64486 | 35936 ft | 440 kts | 232° |
| 2026-04-22 10:47 | 20.84568 | -12.69157 | 35931 ft | 440 kts | 232° |
| 2026-04-22 10:47 | 20.80287 | -12.73819 | 35943 ft | 439 kts | 232° |
| 2026-04-22 10:48 | 20.76008 | -12.78477 | 35943 ft | 439 kts | 232° |
| 2026-04-22 10:48 | 20.71722 | -12.83137 | 35959 ft | 439 kts | 232° |
| 2026-04-22 10:49 | 20.67463 | -12.87765 | 35970 ft | 439 kts | 232° |
| 2026-04-22 10:49 | 20.63174 | -12.92420 | 35988 ft | 439 kts | 232° |
| 2026-04-22 10:50 | 20.58889 | -12.97068 | 36017 ft | 440 kts | 232° |
| 2026-04-22 10:50 | 20.54590 | -13.01729 | 36020 ft | 441 kts | 232° |
| 2026-04-22 10:51 | 20.50243 | -13.06347 | 36022 ft | 444 kts | 229° |
| 2026-04-22 10:51 | 20.45332 | -13.10432 | 36029 ft | 449 kts | 223° |
| 2026-04-22 10:52 | 20.40273 | -13.14364 | 35935 ft | 450 kts | 223° |
| 2026-04-22 10:52 | 20.35226 | -13.18308 | 35930 ft | 449 kts | 223° |
| 2026-04-22 10:53 | 20.30219 | -13.22233 | 35929 ft | 449 kts | 223° |
| 2026-04-22 10:53 | 20.25184 | -13.26184 | 35926 ft | 449 kts | 223° |
| 2026-04-22 10:54 | 20.20148 | -13.30131 | 35924 ft | 450 kts | 223° |
| 2026-04-22 10:54 | 20.15110 | -13.34075 | 35930 ft | 450 kts | 223° |
| 2026-04-22 10:55 | 20.10061 | -13.38025 | 35928 ft | 450 kts | 223° |
| 2026-04-22 10:55 | 20.05007 | -13.41974 | 35929 ft | 450 kts | 223° |
| 2026-04-22 10:56 | 19.99952 | -13.45923 | 35927 ft | 450 kts | 223° |
| 2026-04-22 10:56 | 19.94901 | -13.49866 | 35908 ft | 451 kts | 223° |
| 2026-04-22 10:57 | 19.89872 | -13.53787 | 35920 ft | 450 kts | 223° |
| 2026-04-22 10:57 | 19.84823 | -13.57721 | 35927 ft | 450 kts | 223° |
| 2026-04-22 10:58 | 19.79765 | -13.61659 | 35928 ft | 451 kts | 222° |
| 2026-04-22 10:58 | 19.74700 | -13.65599 | 35922 ft | 451 kts | 222° |
| 2026-04-22 10:59 | 19.69632 | -13.69538 | 35929 ft | 451 kts | 222° |
| 2026-04-22 10:59 | 19.64564 | -13.73474 | 35921 ft | 451 kts | 222° |
| 2026-04-22 11:00 | 19.59496 | -13.77407 | 35910 ft | 451 kts | 222° |
| 2026-04-22 11:00 | 19.54432 | -13.81334 | 35926 ft | 451 kts | 222° |
| 2026-04-22 11:01 | 19.49391 | -13.85239 | 35925 ft | 451 kts | 222° |
| 2026-04-22 11:01 | 19.44322 | -13.89163 | 35925 ft | 451 kts | 222° |
| 2026-04-22 11:02 | 19.39249 | -13.93088 | 35924 ft | 451 kts | 222° |
| 2026-04-22 11:02 | 19.34176 | -13.97009 | 35925 ft | 452 kts | 222° |
| 2026-04-22 11:03 | 19.29097 | -14.00932 | 35921 ft | 452 kts | 222° |
| 2026-04-22 11:03 | 19.24017 | -14.04852 | 35905 ft | 452 kts | 221° |
| 2026-04-22 11:04 | 19.18930 | -14.08774 | 35922 ft | 452 kts | 221° |
| 2026-04-22 11:04 | 19.13877 | -14.12668 | 35924 ft | 452 kts | 221° |
| 2026-04-22 11:05 | 19.08782 | -14.16591 | 35922 ft | 453 kts | 221° |
| 2026-04-22 11:05 | 19.03689 | -14.20509 | 35920 ft | 453 kts | 221° |
| 2026-04-22 11:06 | 18.98594 | -14.24426 | 35924 ft | 453 kts | 221° |
| 2026-04-22 11:06 | 18.93484 | -14.28351 | 35920 ft | 453 kts | 221° |
| 2026-04-22 11:07 | 18.88420 | -14.32237 | 35909 ft | 453 kts | 221° |
| 2026-04-22 11:07 | 18.83322 | -14.36148 | 35925 ft | 453 kts | 221° |
| 2026-04-22 11:08 | 18.78221 | -14.40057 | 35922 ft | 454 kts | 221° |
| 2026-04-22 11:08 | 18.73109 | -14.43972 | 35921 ft | 454 kts | 221° |
| 2026-04-22 11:09 | 18.67996 | -14.47884 | 35921 ft | 454 kts | 221° |
| 2026-04-22 11:09 | 18.62883 | -14.51794 | 35927 ft | 454 kts | 221° |
| 2026-04-22 11:10 | 18.57762 | -14.55706 | 35924 ft | 454 kts | 221° |
| 2026-04-22 11:10 | 18.52642 | -14.59616 | 35925 ft | 454 kts | 220° |
| 2026-04-22 11:11 | 18.47529 | -14.63516 | 35925 ft | 453 kts | 220° |
| 2026-04-22 11:11 | 18.42419 | -14.67411 | 35933 ft | 453 kts | 220° |
| 2026-04-22 11:12 | 18.37312 | -14.71301 | 35919 ft | 453 kts | 220° |
| 2026-04-22 11:12 | 18.32204 | -14.75189 | 35931 ft | 453 kts | 220° |
| 2026-04-22 11:13 | 18.27126 | -14.79052 | 35927 ft | 452 kts | 220° |
| 2026-04-22 11:13 | 18.22025 | -14.82929 | 35932 ft | 452 kts | 220° |
| 2026-04-22 11:14 | 18.16922 | -14.86805 | 35916 ft | 453 kts | 220° |
| 2026-04-22 11:14 | 18.11806 | -14.90688 | 35929 ft | 453 kts | 220° |
| 2026-04-22 11:15 | 18.06687 | -14.94571 | 35921 ft | 453 kts | 219° |
| 2026-04-22 11:15 | 18.01569 | -14.98449 | 35925 ft | 453 kts | 219° |
| 2026-04-22 11:16 | 17.96456 | -15.02321 | 35920 ft | 453 kts | 219° |
| 2026-04-22 11:16 | 17.91373 | -15.06169 | 35922 ft | 453 kts | 219° |
| 2026-04-22 11:17 | 17.86260 | -15.10036 | 35927 ft | 453 kts | 219° |
| 2026-04-22 11:17 | 17.81143 | -15.13902 | 35915 ft | 453 kts | 219° |
| 2026-04-22 11:18 | 17.76028 | -15.17759 | 35929 ft | 453 kts | 219° |
| 2026-04-22 11:18 | 17.70902 | -15.21623 | 35928 ft | 454 kts | 219° |
| 2026-04-22 11:19 | 17.65776 | -15.25487 | 35930 ft | 454 kts | 219° |
| 2026-04-22 11:19 | 17.60647 | -15.29350 | 35929 ft | 454 kts | 219° |
| 2026-04-22 11:20 | 17.55550 | -15.33192 | 35928 ft | 454 kts | 219° |
| 2026-04-22 11:20 | 17.50421 | -15.37057 | 35933 ft | 454 kts | 219° |
| 2026-04-22 11:21 | 17.45292 | -15.40919 | 35926 ft | 454 kts | 219° |
| 2026-04-22 11:21 | 17.40157 | -15.44783 | 35929 ft | 454 kts | 219° |
| 2026-04-22 11:22 | 17.35030 | -15.48638 | 35931 ft | 454 kts | 219° |
| 2026-04-22 11:22 | 17.29899 | -15.52493 | 35934 ft | 454 kts | 219° |
| 2026-04-22 11:23 | 17.24775 | -15.56342 | 35937 ft | 453 kts | 219° |
| 2026-04-22 11:23 | 17.19647 | -15.60190 | 35934 ft | 453 kts | 219° |
| 2026-04-22 11:24 | 17.14516 | -15.64038 | 35932 ft | 453 kts | 219° |
| 2026-04-22 11:24 | 17.09386 | -15.67883 | 35932 ft | 454 kts | 219° |
| 2026-04-22 11:25 | 17.04287 | -15.71704 | 35938 ft | 454 kts | 219° |
| 2026-04-22 11:25 | 16.99149 | -15.75555 | 35936 ft | 454 kts | 219° |
| 2026-04-22 11:26 | 16.94009 | -15.79404 | 35944 ft | 455 kts | 219° |
| 2026-04-22 11:26 | 16.88862 | -15.83257 | 35941 ft | 455 kts | 219° |
| 2026-04-22 11:27 | 16.83715 | -15.87107 | 35941 ft | 455 kts | 219° |
| 2026-04-22 11:27 | 16.78565 | -15.90956 | 35942 ft | 455 kts | 219° |
| 2026-04-22 11:28 | 16.73415 | -15.94804 | 35937 ft | 455 kts | 218° |
| 2026-04-22 11:28 | 16.69184 | -15.97962 | 35944 ft | 455 kts | 218° |
| 2026-04-22 11:29 | 16.64012 | -16.01821 | 35949 ft | 456 kts | 218° |
| 2026-04-22 11:29 | 16.59111 | -16.05476 | 35945 ft | 456 kts | 218° |
| 2026-04-22 11:30 | 16.53940 | -16.09330 | 35950 ft | 456 kts | 218° |
| 2026-04-22 11:30 | 16.49573 | -16.12421 | 35951 ft | 459 kts | 213° |
| 2026-04-22 11:31 | 16.43777 | -16.15268 | 35954 ft | 463 kts | 205° |
| 2026-04-22 11:31 | 16.37746 | -16.17630 | 35951 ft | 463 kts | 204° |
| 2026-04-22 11:32 | 16.31710 | -16.20016 | 35951 ft | 463 kts | 205° |
| 2026-04-22 11:32 | 16.25690 | -16.22415 | 35958 ft | 463 kts | 205° |
| 2026-04-22 11:33 | 16.19673 | -16.24817 | 35958 ft | 463 kts | 205° |
| 2026-04-22 11:33 | 16.13647 | -16.27222 | 35964 ft | 463 kts | 205° |
| 2026-04-22 11:34 | 16.07658 | -16.29609 | 35964 ft | 463 kts | 205° |
| 2026-04-22 11:34 | 16.01638 | -16.32008 | 35959 ft | 463 kts | 204° |
| 2026-04-22 11:35 | 15.95612 | -16.34407 | 35962 ft | 464 kts | 204° |
| 2026-04-22 11:35 | 15.94615 | -16.34804 | 35961 ft | 464 kts | 204° |
| 2026-04-22 11:36 | 15.88590 | -16.37200 | 35962 ft | 464 kts | 204° |
| 2026-04-22 11:36 | 15.82563 | -16.39596 | 35968 ft | 464 kts | 204° |
| 2026-04-22 11:37 | 15.76515 | -16.42000 | 35297 ft | 475 kts | 204° |
| 2026-04-22 11:37 | 15.73403 | -16.43239 | 34458 ft | 479 kts | 204° |
| 2026-04-22 11:37 | 15.70286 | -16.44477 | 33440 ft | 482 kts | 204° |
| 2026-04-22 11:37 | 15.67139 | -16.45725 | 32437 ft | 484 kts | 205° |
| 2026-04-22 11:38 | 15.63979 | -16.46977 | 31438 ft | 488 kts | 205° |
| 2026-04-22 11:38 | 15.60797 | -16.48239 | 30540 ft | 491 kts | 205° |
| 2026-04-22 11:38 | 15.54435 | -16.50758 | 29016 ft | 488 kts | 205° |
| 2026-04-22 11:39 | 15.51271 | -16.52011 | 28295 ft | 485 kts | 205° |
| 2026-04-22 11:39 | 15.48170 | -16.53238 | 27626 ft | 482 kts | 205° |
| 2026-04-22 11:39 | 15.45002 | -16.54492 | 26942 ft | 479 kts | 205° |
| 2026-04-22 11:39 | 15.41946 | -16.55701 | 26281 ft | 476 kts | 205° |
| 2026-04-22 11:40 | 15.38856 | -16.56924 | 25609 ft | 474 kts | 204° |
| 2026-04-22 11:40 | 15.35778 | -16.58141 | 24941 ft | 472 kts | 204° |
| 2026-04-22 11:40 | 15.32719 | -16.59351 | 24289 ft | 470 kts | 204° |
| 2026-04-22 11:40 | 15.29662 | -16.60560 | 23623 ft | 469 kts | 204° |
| 2026-04-22 11:41 | 15.26624 | -16.61761 | 22850 ft | 467 kts | 204° |
| 2026-04-22 11:41 | 15.23598 | -16.62957 | 22157 ft | 463 kts | 204° |
| 2026-04-22 11:41 | 15.20600 | -16.64140 | 21498 ft | 459 kts | 204° |
| 2026-04-22 11:41 | 15.17628 | -16.65312 | 20886 ft | 453 kts | 203° |
| 2026-04-22 11:42 | 15.14704 | -16.66465 | 20275 ft | 448 kts | 203° |
| 2026-04-22 11:42 | 15.11808 | -16.67607 | 19806 ft | 440 kts | 203° |
| 2026-04-22 11:42 | 15.08978 | -16.68723 | 19400 ft | 431 kts | 203° |
| 2026-04-22 11:42 | 15.06207 | -16.69815 | 19011 ft | 422 kts | 203° |
| 2026-04-22 11:43 | 15.03490 | -16.70885 | 18682 ft | 412 kts | 204° |
| 2026-04-22 11:43 | 15.00838 | -16.71930 | 18298 ft | 405 kts | 204° |
| 2026-04-22 11:43 | 14.98215 | -16.72965 | 17704 ft | 402 kts | 203° |
| 2026-04-22 11:43 | 14.95610 | -16.73993 | 17093 ft | 400 kts | 203° |
| 2026-04-22 11:44 | 14.93053 | -16.75002 | 16524 ft | 397 kts | 202° |
| 2026-04-22 11:44 | 14.90480 | -16.76016 | 15997 ft | 393 kts | 202° |
| 2026-04-22 11:44 | 14.87940 | -16.77016 | 15500 ft | 389 kts | 202° |
| 2026-04-22 11:44 | 14.85428 | -16.78005 | 15038 ft | 383 kts | 202° |
| 2026-04-22 11:45 | 14.82988 | -16.78965 | 14218 ft | 370 kts | 201° |
| 2026-04-22 11:45 | 14.80566 | -16.79918 | 13326 ft | 370 kts | 201° |
| 2026-04-22 11:45 | 14.78172 | -16.80860 | 12504 ft | 369 kts | 200° |
| 2026-04-22 11:45 | 14.75782 | -16.81799 | 11980 ft | 367 kts | 200° |
| 2026-04-22 11:46 | 14.73405 | -16.82734 | 11556 ft | 361 kts | 200° |
| 2026-04-22 11:46 | 14.71150 | -16.83620 | 11421 ft | 333 kts | 200° |
| 2026-04-22 11:46 | 14.69055 | -16.84444 | 11217 ft | 309 kts | 200° |
| 2026-04-22 11:46 | 14.67109 | -16.85209 | 11053 ft | 289 kts | 200° |
| 2026-04-22 11:47 | 14.65286 | -16.85926 | 10632 ft | 274 kts | 200° |
| 2026-04-22 11:47 | 14.63496 | -16.86628 | 10334 ft | 271 kts | 200° |
| 2026-04-22 11:47 | 14.61758 | -16.87310 | 10210 ft | 265 kts | 199° |
| 2026-04-22 11:47 | 14.60045 | -16.87983 | 10118 ft | 264 kts | 199° |
| 2026-04-22 11:48 | 14.58317 | -16.88661 | 10049 ft | 267 kts | 199° |
| 2026-04-22 11:48 | 14.56602 | -16.89335 | 9724 ft | 260 kts | 199° |
| 2026-04-22 11:48 | 14.54974 | -16.89973 | 9262 ft | 248 kts | 199° |
| 2026-04-22 11:48 | 14.53358 | -16.90612 | 8603 ft | 250 kts | 200° |
| 2026-04-22 11:49 | 14.51741 | -16.91254 | 8102 ft | 244 kts | 200° |
| 2026-04-22 11:49 | 14.50201 | -16.91904 | 7668 ft | 234 kts | 208° |
| 2026-04-22 11:49 | 14.48884 | -16.92838 | 7216 ft | 226 kts | 216° |
| 2026-04-22 11:49 | 14.47667 | -16.93840 | 6704 ft | 222 kts | 217° |
| 2026-04-22 11:50 | 14.46468 | -16.94838 | 6120 ft | 221 kts | 217° |
| 2026-04-22 11:50 | 14.45277 | -16.95832 | 5586 ft | 218 kts | 218° |
| 2026-04-22 11:50 | 14.44130 | -16.96792 | 5203 ft | 208 kts | 218° |
| 2026-04-22 11:50 | 14.43103 | -16.97797 | 4795 ft | 199 kts | 237° |
| 2026-04-22 11:51 | 14.42730 | -16.99160 | 4346 ft | 200 kts | 268° |
| 2026-04-22 11:51 | 14.42723 | -17.00587 | 4031 ft | 197 kts | 270° |
| 2026-04-22 11:51 | 14.43041 | -17.01923 | 3693 ft | 194 kts | 301° |
| 2026-04-22 11:51 | 14.43899 | -17.02953 | 3473 ft | 186 kts | 314° |
| 2026-04-22 11:52 | 14.44816 | -17.03923 | 3359 ft | 191 kts | 313° |
| 2026-04-22 11:52 | 14.45753 | -17.04920 | 3213 ft | 195 kts | 313° |
| 2026-04-22 11:52 | 14.46696 | -17.05926 | 3103 ft | 193 kts | 313° |
| 2026-04-22 11:52 | 14.47745 | -17.06743 | 3014 ft | 191 kts | 341° |
| 2026-04-22 11:53 | 14.49060 | -17.06945 | 3010 ft | 193 kts | 352° |
| 2026-04-22 11:53 | 14.50380 | -17.07079 | 3031 ft | 185 kts | 354° |
| 2026-04-22 11:53 | 14.51634 | -17.07130 | 2880 ft | 178 kts | 357° |
| 2026-04-22 11:53 | 14.52837 | -17.07147 | 2679 ft | 169 kts | 358° |
| 2026-04-22 11:54 | 14.54018 | -17.07159 | 2479 ft | 168 kts | 358° |
| 2026-04-22 11:54 | 14.55144 | -17.07170 | 2255 ft | 153 kts | 358° |
| 2026-04-22 11:54 | 14.56165 | -17.07179 | 2097 ft | 146 kts | 358° |
| 2026-04-22 11:54 | 14.57177 | -17.07189 | 1901 ft | 145 kts | 358° |
| 2026-04-22 11:55 | 14.58186 | -17.07198 | 1720 ft | 145 kts | 358° |
| 2026-04-22 11:55 | 14.59195 | -17.07208 | 1518 ft | 144 kts | 359° |
| 2026-04-22 11:55 | 14.60175 | -17.07217 | 1325 ft | 139 kts | 359° |
| 2026-04-22 11:55 | 14.61138 | -17.07226 | 1151 ft | 138 kts | 358° |
| 2026-04-22 11:56 | 14.62119 | -17.07239 | 1008 ft | 142 kts | 359° |
| 2026-04-22 11:56 | 14.63107 | -17.07242 | 824 ft | 141 kts | 358° |
| 2026-04-22 11:56 | 14.64080 | -17.07253 | 583 ft | 139 kts | 358° |
| 2026-04-22 11:56 | 14.65038 | -17.07263 | 410 ft | 136 kts | 358° |
| 2026-04-22 11:57 | 14.65983 | -17.07273 | 313 ft | 132 kts | 358° |
| 2026-04-22 11:57 | 14.66795 | -17.07279 | 305 ft | 94 kts | 359° |
| 2026-04-22 11:57 | 14.67267 | -17.07284 | 298 ft | 51 kts | 360° |
| 2026-04-22 11:57 | 14.67569 | -17.07288 | 296 ft | 28 kts | 359° |
| 2026-04-22 11:58 | 14.67719 | -17.07233 | 298 ft | 16 kts | 29° |
| 2026-04-22 11:58 | 14.67820 | -17.07177 | 297 ft | 16 kts | 30° |
| 2026-04-22 11:58 | 14.67824 | -17.07114 | 298 ft | 9 kts | 144° |
| 2026-04-22 11:58 | 14.67760 | -17.07102 | 294 ft | 9 kts | 176° |
| 2026-04-22 11:59 | 14.67694 | -17.07099 | 294 ft | 10 kts | 178° |
| 2026-04-22 11:59 | 14.67627 | -17.07097 | 299 ft | 10 kts | 178° |
| 2026-04-22 11:59 | 14.67561 | -17.07088 | 299 ft | 10 kts | 152° |
| 2026-04-22 11:59 | 14.67537 | -17.07021 | 295 ft | 11 kts | 92° |
| 2026-04-22 12:00 | 14.67537 | -17.06940 | 299 ft | 11 kts | 89° |
| 2026-04-22 12:00 | 14.67507 | -17.06876 | 297 ft | 11 kts | 170° |
| 2026-04-22 12:00 | 14.67469 | -17.06877 | 300 ft | 0 kts | 179° |